<?xml version="1.0" encoding="UTF-8" standalone="no" ?>
<gpx xmlns="http://www.topografix.com/GPX/1/1" xmlns:xsi="http://www.w3.org/2001/XMLSchema-instance" xsi:schemaLocation="http://www.topografix.com/GPX/1/1 http://www.topografix.com/GPX/1/1/gpx.xsd" version="1.1" creator="VisuGPX - https://www.visugpx.com">
  <metadata>
    <name>Saint Vincent</name>
    <desc><![CDATA[File with points/tracks from Locus Map/3.35.2]]></desc>
  </metadata>
  <trk>
    <name><![CDATA[2019-01-24 14:17:02]]></name>
    <trkseg>
      <trkpt lat="45.14347" lon="3.9078">
        <ele>607.43</ele>
        <time>2019-01-24T13:17:04.000Z</time>
      </trkpt>
      <trkpt lat="45.14349" lon="3.90781">
        <ele>605.1</ele>
        <time>2019-01-24T13:17:14.000Z</time>
      </trkpt>
      <trkpt lat="45.14347" lon="3.90782">
        <ele>606.68</ele>
        <time>2019-01-24T13:17:24.000Z</time>
      </trkpt>
      <trkpt lat="45.14343" lon="3.90793">
        <ele>611.82</ele>
        <time>2019-01-24T13:17:34.000Z</time>
      </trkpt>
      <trkpt lat="45.14347" lon="3.90793">
        <ele>612.2</ele>
        <time>2019-01-24T13:17:44.000Z</time>
      </trkpt>
      <trkpt lat="45.14344" lon="3.90788">
        <ele>611.9</ele>
        <time>2019-01-24T13:18:03.000Z</time>
      </trkpt>
      <trkpt lat="45.14347" lon="3.90796">
        <ele>612.7</ele>
        <time>2019-01-24T13:18:23.000Z</time>
      </trkpt>
      <trkpt lat="45.14355" lon="3.90795">
        <ele>612.6</ele>
        <time>2019-01-24T13:18:33.000Z</time>
      </trkpt>
      <trkpt lat="45.14362" lon="3.90797">
        <ele>611.93</ele>
        <time>2019-01-24T13:18:43.000Z</time>
      </trkpt>
      <trkpt lat="45.14366" lon="3.90806">
        <ele>611.9</ele>
        <time>2019-01-24T13:18:53.000Z</time>
      </trkpt>
      <trkpt lat="45.14366" lon="3.90808">
        <ele>611.9</ele>
        <time>2019-01-24T13:19:03.000Z</time>
      </trkpt>
      <trkpt lat="45.14369" lon="3.90822">
        <ele>612.2</ele>
        <time>2019-01-24T13:19:14.000Z</time>
      </trkpt>
      <trkpt lat="45.14372" lon="3.90839">
        <ele>611.13</ele>
        <time>2019-01-24T13:19:24.000Z</time>
      </trkpt>
      <trkpt lat="45.14392" lon="3.90839">
        <ele>611.03</ele>
        <time>2019-01-24T13:19:34.000Z</time>
      </trkpt>
      <trkpt lat="45.14394" lon="3.90847">
        <ele>610.2</ele>
        <time>2019-01-24T13:19:44.000Z</time>
      </trkpt>
      <trkpt lat="45.14384" lon="3.90854">
        <ele>608.78</ele>
        <time>2019-01-24T13:19:54.000Z</time>
      </trkpt>
      <trkpt lat="45.14372" lon="3.90849">
        <ele>608.42</ele>
        <time>2019-01-24T13:20:04.000Z</time>
      </trkpt>
      <trkpt lat="45.14357" lon="3.90849">
        <ele>608.31</ele>
        <time>2019-01-24T13:20:14.000Z</time>
      </trkpt>
      <trkpt lat="45.14346" lon="3.90851">
        <ele>608.83</ele>
        <time>2019-01-24T13:20:24.000Z</time>
      </trkpt>
      <trkpt lat="45.14341" lon="3.9085">
        <ele>604.85</ele>
        <time>2019-01-24T13:20:34.000Z</time>
      </trkpt>
      <trkpt lat="45.14333" lon="3.90848">
        <ele>601.31</ele>
        <time>2019-01-24T13:20:44.000Z</time>
      </trkpt>
      <trkpt lat="45.14325" lon="3.90847">
        <ele>598.83</ele>
        <time>2019-01-24T13:20:54.000Z</time>
      </trkpt>
      <trkpt lat="45.14315" lon="3.90837">
        <ele>598.89</ele>
        <time>2019-01-24T13:21:04.000Z</time>
      </trkpt>
      <trkpt lat="45.14305" lon="3.90829">
        <ele>599</ele>
        <time>2019-01-24T13:21:14.000Z</time>
      </trkpt>
      <trkpt lat="45.14294" lon="3.90822">
        <ele>599.26</ele>
        <time>2019-01-24T13:21:24.000Z</time>
      </trkpt>
      <trkpt lat="45.1429" lon="3.90817">
        <ele>599.23</ele>
        <time>2019-01-24T13:21:34.000Z</time>
      </trkpt>
      <trkpt lat="45.14285" lon="3.90806">
        <ele>598.71</ele>
        <time>2019-01-24T13:21:44.000Z</time>
      </trkpt>
      <trkpt lat="45.14278" lon="3.90801">
        <ele>597.41</ele>
        <time>2019-01-24T13:21:54.000Z</time>
      </trkpt>
      <trkpt lat="45.14269" lon="3.90793">
        <ele>597.85</ele>
        <time>2019-01-24T13:22:04.000Z</time>
      </trkpt>
      <trkpt lat="45.1427" lon="3.90783">
        <ele>587.86</ele>
        <time>2019-01-24T13:22:14.000Z</time>
      </trkpt>
      <trkpt lat="45.14263" lon="3.90776">
        <ele>588.92</ele>
        <time>2019-01-24T13:22:24.000Z</time>
      </trkpt>
      <trkpt lat="45.14256" lon="3.90769">
        <ele>591.08</ele>
        <time>2019-01-24T13:22:34.000Z</time>
      </trkpt>
      <trkpt lat="45.14248" lon="3.90748">
        <ele>594.7</ele>
        <time>2019-01-24T13:22:44.000Z</time>
      </trkpt>
      <trkpt lat="45.14243" lon="3.90731">
        <ele>600.4</ele>
        <time>2019-01-24T13:22:54.000Z</time>
      </trkpt>
      <trkpt lat="45.14239" lon="3.9072">
        <ele>601.55</ele>
        <time>2019-01-24T13:23:04.000Z</time>
      </trkpt>
      <trkpt lat="45.14235" lon="3.90711">
        <ele>597.64</ele>
        <time>2019-01-24T13:23:14.000Z</time>
      </trkpt>
      <trkpt lat="45.14229" lon="3.90706">
        <ele>595.39</ele>
        <time>2019-01-24T13:23:24.000Z</time>
      </trkpt>
      <trkpt lat="45.14223" lon="3.90696">
        <ele>594.91</ele>
        <time>2019-01-24T13:23:34.000Z</time>
      </trkpt>
      <trkpt lat="45.14218" lon="3.90687">
        <ele>593.04</ele>
        <time>2019-01-24T13:23:44.000Z</time>
      </trkpt>
      <trkpt lat="45.14212" lon="3.9068">
        <ele>590.56</ele>
        <time>2019-01-24T13:23:54.000Z</time>
      </trkpt>
      <trkpt lat="45.14208" lon="3.90673">
        <ele>586.16</ele>
        <time>2019-01-24T13:24:04.000Z</time>
      </trkpt>
      <trkpt lat="45.14195" lon="3.90664">
        <ele>587.28</ele>
        <time>2019-01-24T13:24:14.000Z</time>
      </trkpt>
      <trkpt lat="45.14186" lon="3.90665">
        <ele>587.76</ele>
        <time>2019-01-24T13:24:24.000Z</time>
      </trkpt>
      <trkpt lat="45.14176" lon="3.90667">
        <ele>588.15</ele>
        <time>2019-01-24T13:24:34.000Z</time>
      </trkpt>
      <trkpt lat="45.14166" lon="3.90668">
        <ele>591.18</ele>
        <time>2019-01-24T13:24:44.000Z</time>
      </trkpt>
      <trkpt lat="45.14157" lon="3.90671">
        <ele>592.74</ele>
        <time>2019-01-24T13:24:54.000Z</time>
      </trkpt>
      <trkpt lat="45.14143" lon="3.90673">
        <ele>595.77</ele>
        <time>2019-01-24T13:25:04.000Z</time>
      </trkpt>
      <trkpt lat="45.14133" lon="3.90672">
        <ele>593.9</ele>
        <time>2019-01-24T13:25:14.000Z</time>
      </trkpt>
      <trkpt lat="45.14127" lon="3.90672">
        <ele>594.82</ele>
        <time>2019-01-24T13:25:24.000Z</time>
      </trkpt>
      <trkpt lat="45.14119" lon="3.90672">
        <ele>593.03</ele>
        <time>2019-01-24T13:25:34.000Z</time>
      </trkpt>
      <trkpt lat="45.14109" lon="3.90673">
        <ele>593.36</ele>
        <time>2019-01-24T13:25:44.000Z</time>
      </trkpt>
      <trkpt lat="45.14098" lon="3.90674">
        <ele>594.91</ele>
        <time>2019-01-24T13:25:54.000Z</time>
      </trkpt>
      <trkpt lat="45.14088" lon="3.90676">
        <ele>604.62</ele>
        <time>2019-01-24T13:26:04.000Z</time>
      </trkpt>
      <trkpt lat="45.14078" lon="3.90678">
        <ele>604.71</ele>
        <time>2019-01-24T13:26:14.000Z</time>
      </trkpt>
      <trkpt lat="45.14067" lon="3.90679">
        <ele>604.61</ele>
        <time>2019-01-24T13:26:24.000Z</time>
      </trkpt>
      <trkpt lat="45.14057" lon="3.9068">
        <ele>602.39</ele>
        <time>2019-01-24T13:26:34.000Z</time>
      </trkpt>
      <trkpt lat="45.14048" lon="3.9068">
        <ele>601.74</ele>
        <time>2019-01-24T13:26:44.000Z</time>
      </trkpt>
      <trkpt lat="45.14043" lon="3.90681">
        <ele>604.08</ele>
        <time>2019-01-24T13:26:54.000Z</time>
      </trkpt>
      <trkpt lat="45.14035" lon="3.90683">
        <ele>599.27</ele>
        <time>2019-01-24T13:27:04.000Z</time>
      </trkpt>
      <trkpt lat="45.14024" lon="3.90682">
        <ele>594.5</ele>
        <time>2019-01-24T13:27:14.000Z</time>
      </trkpt>
      <trkpt lat="45.14014" lon="3.90684">
        <ele>592.74</ele>
        <time>2019-01-24T13:27:24.000Z</time>
      </trkpt>
      <trkpt lat="45.14002" lon="3.90684">
        <ele>595.23</ele>
        <time>2019-01-24T13:27:34.000Z</time>
      </trkpt>
      <trkpt lat="45.13991" lon="3.90683">
        <ele>596.44</ele>
        <time>2019-01-24T13:27:44.000Z</time>
      </trkpt>
      <trkpt lat="45.1398" lon="3.90681">
        <ele>596</ele>
        <time>2019-01-24T13:27:54.000Z</time>
      </trkpt>
      <trkpt lat="45.13971" lon="3.90681">
        <ele>595.89</ele>
        <time>2019-01-24T13:28:04.000Z</time>
      </trkpt>
      <trkpt lat="45.1396" lon="3.90679">
        <ele>595.69</ele>
        <time>2019-01-24T13:28:14.000Z</time>
      </trkpt>
      <trkpt lat="45.1395" lon="3.90676">
        <ele>597.09</ele>
        <time>2019-01-24T13:28:24.000Z</time>
      </trkpt>
      <trkpt lat="45.1394" lon="3.90674">
        <ele>597.58</ele>
        <time>2019-01-24T13:28:34.000Z</time>
      </trkpt>
      <trkpt lat="45.13929" lon="3.90672">
        <ele>598.51</ele>
        <time>2019-01-24T13:28:44.000Z</time>
      </trkpt>
      <trkpt lat="45.13918" lon="3.90669">
        <ele>602.53</ele>
        <time>2019-01-24T13:28:54.000Z</time>
      </trkpt>
      <trkpt lat="45.13908" lon="3.90665">
        <ele>603.37</ele>
        <time>2019-01-24T13:29:04.000Z</time>
      </trkpt>
      <trkpt lat="45.139" lon="3.90664">
        <ele>601.62</ele>
        <time>2019-01-24T13:29:14.000Z</time>
      </trkpt>
      <trkpt lat="45.13891" lon="3.90659">
        <ele>597.97</ele>
        <time>2019-01-24T13:29:24.000Z</time>
      </trkpt>
      <trkpt lat="45.13882" lon="3.90658">
        <ele>596.43</ele>
        <time>2019-01-24T13:29:34.000Z</time>
      </trkpt>
      <trkpt lat="45.13871" lon="3.90655">
        <ele>596.04</ele>
        <time>2019-01-24T13:29:44.000Z</time>
      </trkpt>
      <trkpt lat="45.13862" lon="3.90652">
        <ele>593.79</ele>
        <time>2019-01-24T13:29:54.000Z</time>
      </trkpt>
      <trkpt lat="45.13852" lon="3.90648">
        <ele>590.19</ele>
        <time>2019-01-24T13:30:04.000Z</time>
      </trkpt>
      <trkpt lat="45.13844" lon="3.90644">
        <ele>589.25</ele>
        <time>2019-01-24T13:30:14.000Z</time>
      </trkpt>
      <trkpt lat="45.13832" lon="3.9064">
        <ele>592.98</ele>
        <time>2019-01-24T13:30:24.000Z</time>
      </trkpt>
      <trkpt lat="45.13821" lon="3.90635">
        <ele>595.81</ele>
        <time>2019-01-24T13:30:34.000Z</time>
      </trkpt>
      <trkpt lat="45.13815" lon="3.90629">
        <ele>593.25</ele>
        <time>2019-01-24T13:30:44.000Z</time>
      </trkpt>
      <trkpt lat="45.13812" lon="3.90627">
        <ele>588.3</ele>
        <time>2019-01-24T13:30:54.000Z</time>
      </trkpt>
      <trkpt lat="45.13814" lon="3.9062">
        <ele>589.32</ele>
        <time>2019-01-24T13:31:04.000Z</time>
      </trkpt>
      <trkpt lat="45.13815" lon="3.90616">
        <ele>586.43</ele>
        <time>2019-01-24T13:31:14.000Z</time>
      </trkpt>
      <trkpt lat="45.13818" lon="3.90603">
        <ele>588.94</ele>
        <time>2019-01-24T13:31:24.000Z</time>
      </trkpt>
      <trkpt lat="45.13821" lon="3.90593">
        <ele>594.04</ele>
        <time>2019-01-24T13:31:34.000Z</time>
      </trkpt>
      <trkpt lat="45.13825" lon="3.90586">
        <ele>596.9</ele>
        <time>2019-01-24T13:31:44.000Z</time>
      </trkpt>
      <trkpt lat="45.13826" lon="3.90569">
        <ele>597.65</ele>
        <time>2019-01-24T13:31:54.000Z</time>
      </trkpt>
      <trkpt lat="45.1383" lon="3.90556">
        <ele>588.11</ele>
        <time>2019-01-24T13:32:04.000Z</time>
      </trkpt>
      <trkpt lat="45.13831" lon="3.90542">
        <ele>595.49</ele>
        <time>2019-01-24T13:32:14.000Z</time>
      </trkpt>
      <trkpt lat="45.13839" lon="3.9053">
        <ele>596.37</ele>
        <time>2019-01-24T13:32:24.000Z</time>
      </trkpt>
      <trkpt lat="45.13846" lon="3.90521">
        <ele>595.23</ele>
        <time>2019-01-24T13:32:34.000Z</time>
      </trkpt>
      <trkpt lat="45.13851" lon="3.9051">
        <ele>600.38</ele>
        <time>2019-01-24T13:32:44.000Z</time>
      </trkpt>
      <trkpt lat="45.13856" lon="3.90497">
        <ele>601.59</ele>
        <time>2019-01-24T13:32:54.000Z</time>
      </trkpt>
      <trkpt lat="45.13862" lon="3.90486">
        <ele>600.69</ele>
        <time>2019-01-24T13:33:04.000Z</time>
      </trkpt>
      <trkpt lat="45.13868" lon="3.90479">
        <ele>599.07</ele>
        <time>2019-01-24T13:33:14.000Z</time>
      </trkpt>
      <trkpt lat="45.13875" lon="3.90467">
        <ele>596.58</ele>
        <time>2019-01-24T13:33:24.000Z</time>
      </trkpt>
      <trkpt lat="45.1388" lon="3.90455">
        <ele>595.35</ele>
        <time>2019-01-24T13:33:34.000Z</time>
      </trkpt>
      <trkpt lat="45.13887" lon="3.90441">
        <ele>598.67</ele>
        <time>2019-01-24T13:33:44.000Z</time>
      </trkpt>
      <trkpt lat="45.13893" lon="3.90431">
        <ele>598.26</ele>
        <time>2019-01-24T13:33:54.000Z</time>
      </trkpt>
      <trkpt lat="45.13896" lon="3.90421">
        <ele>598.1</ele>
        <time>2019-01-24T13:34:04.000Z</time>
      </trkpt>
      <trkpt lat="45.139" lon="3.90413">
        <ele>599.87</ele>
        <time>2019-01-24T13:34:14.000Z</time>
      </trkpt>
      <trkpt lat="45.13905" lon="3.90402">
        <ele>598.97</ele>
        <time>2019-01-24T13:34:24.000Z</time>
      </trkpt>
      <trkpt lat="45.13908" lon="3.90393">
        <ele>601.8</ele>
        <time>2019-01-24T13:34:34.000Z</time>
      </trkpt>
      <trkpt lat="45.13913" lon="3.90381">
        <ele>607.21</ele>
        <time>2019-01-24T13:34:44.000Z</time>
      </trkpt>
      <trkpt lat="45.13919" lon="3.90372">
        <ele>607.24</ele>
        <time>2019-01-24T13:34:54.000Z</time>
      </trkpt>
      <trkpt lat="45.13925" lon="3.90364">
        <ele>608</ele>
        <time>2019-01-24T13:35:04.000Z</time>
      </trkpt>
      <trkpt lat="45.13929" lon="3.90349">
        <ele>609.67</ele>
        <time>2019-01-24T13:35:14.000Z</time>
      </trkpt>
      <trkpt lat="45.13934" lon="3.90338">
        <ele>606.38</ele>
        <time>2019-01-24T13:35:24.000Z</time>
      </trkpt>
      <trkpt lat="45.13939" lon="3.90328">
        <ele>605.9</ele>
        <time>2019-01-24T13:35:34.000Z</time>
      </trkpt>
      <trkpt lat="45.13945" lon="3.90323">
        <ele>610.55</ele>
        <time>2019-01-24T13:35:44.000Z</time>
      </trkpt>
      <trkpt lat="45.13948" lon="3.90314">
        <ele>612.56</ele>
        <time>2019-01-24T13:35:54.000Z</time>
      </trkpt>
      <trkpt lat="45.13952" lon="3.90301">
        <ele>607.54</ele>
        <time>2019-01-24T13:36:04.000Z</time>
      </trkpt>
      <trkpt lat="45.13956" lon="3.90293">
        <ele>607.06</ele>
        <time>2019-01-24T13:36:14.000Z</time>
      </trkpt>
      <trkpt lat="45.13959" lon="3.90284">
        <ele>611.08</ele>
        <time>2019-01-24T13:36:24.000Z</time>
      </trkpt>
      <trkpt lat="45.13963" lon="3.90278">
        <ele>612.38</ele>
        <time>2019-01-24T13:36:34.000Z</time>
      </trkpt>
      <trkpt lat="45.13966" lon="3.90268">
        <ele>616.85</ele>
        <time>2019-01-24T13:36:44.000Z</time>
      </trkpt>
      <trkpt lat="45.13967" lon="3.90252">
        <ele>616.29</ele>
        <time>2019-01-24T13:36:54.000Z</time>
      </trkpt>
      <trkpt lat="45.13972" lon="3.9024">
        <ele>613.99</ele>
        <time>2019-01-24T13:37:04.000Z</time>
      </trkpt>
      <trkpt lat="45.13977" lon="3.90229">
        <ele>615.25</ele>
        <time>2019-01-24T13:37:14.000Z</time>
      </trkpt>
      <trkpt lat="45.1398" lon="3.90218">
        <ele>612.36</ele>
        <time>2019-01-24T13:37:24.000Z</time>
      </trkpt>
      <trkpt lat="45.13984" lon="3.90208">
        <ele>612.16</ele>
        <time>2019-01-24T13:37:34.000Z</time>
      </trkpt>
      <trkpt lat="45.13987" lon="3.90204">
        <ele>615.93</ele>
        <time>2019-01-24T13:37:44.000Z</time>
      </trkpt>
      <trkpt lat="45.13991" lon="3.90196">
        <ele>615.22</ele>
        <time>2019-01-24T13:37:54.000Z</time>
      </trkpt>
      <trkpt lat="45.13997" lon="3.9019">
        <ele>616.03</ele>
        <time>2019-01-24T13:38:04.000Z</time>
      </trkpt>
      <trkpt lat="45.14003" lon="3.90182">
        <ele>618.61</ele>
        <time>2019-01-24T13:38:14.000Z</time>
      </trkpt>
      <trkpt lat="45.14001" lon="3.9018">
        <ele>623.74</ele>
        <time>2019-01-24T13:38:24.000Z</time>
      </trkpt>
      <trkpt lat="45.14002" lon="3.90167">
        <ele>620.05</ele>
        <time>2019-01-24T13:38:34.000Z</time>
      </trkpt>
      <trkpt lat="45.14003" lon="3.9015">
        <ele>621.61</ele>
        <time>2019-01-24T13:38:44.000Z</time>
      </trkpt>
      <trkpt lat="45.14003" lon="3.90133">
        <ele>624.68</ele>
        <time>2019-01-24T13:38:54.000Z</time>
      </trkpt>
      <trkpt lat="45.14007" lon="3.90123">
        <ele>629.51</ele>
        <time>2019-01-24T13:39:04.000Z</time>
      </trkpt>
      <trkpt lat="45.14006" lon="3.90113">
        <ele>630.13</ele>
        <time>2019-01-24T13:39:14.000Z</time>
      </trkpt>
      <trkpt lat="45.14004" lon="3.90101">
        <ele>623.98</ele>
        <time>2019-01-24T13:39:24.000Z</time>
      </trkpt>
      <trkpt lat="45.14004" lon="3.90085">
        <ele>621.8</ele>
        <time>2019-01-24T13:39:34.000Z</time>
      </trkpt>
      <trkpt lat="45.14004" lon="3.9007">
        <ele>624.67</ele>
        <time>2019-01-24T13:39:44.000Z</time>
      </trkpt>
      <trkpt lat="45.14007" lon="3.90057">
        <ele>624.51</ele>
        <time>2019-01-24T13:39:54.000Z</time>
      </trkpt>
      <trkpt lat="45.14014" lon="3.90046">
        <ele>625.14</ele>
        <time>2019-01-24T13:40:04.000Z</time>
      </trkpt>
      <trkpt lat="45.1402" lon="3.90033">
        <ele>626.26</ele>
        <time>2019-01-24T13:40:14.000Z</time>
      </trkpt>
      <trkpt lat="45.14026" lon="3.90022">
        <ele>625.05</ele>
        <time>2019-01-24T13:40:24.000Z</time>
      </trkpt>
      <trkpt lat="45.14032" lon="3.90008">
        <ele>626.72</ele>
        <time>2019-01-24T13:40:34.000Z</time>
      </trkpt>
      <trkpt lat="45.14038" lon="3.89996">
        <ele>623.99</ele>
        <time>2019-01-24T13:40:44.000Z</time>
      </trkpt>
      <trkpt lat="45.14044" lon="3.89983">
        <ele>624.49</ele>
        <time>2019-01-24T13:40:54.000Z</time>
      </trkpt>
      <trkpt lat="45.14051" lon="3.89976">
        <ele>628.43</ele>
        <time>2019-01-24T13:41:04.000Z</time>
      </trkpt>
      <trkpt lat="45.1406" lon="3.8997">
        <ele>627.2</ele>
        <time>2019-01-24T13:41:14.000Z</time>
      </trkpt>
      <trkpt lat="45.14071" lon="3.89961">
        <ele>625.99</ele>
        <time>2019-01-24T13:41:24.000Z</time>
      </trkpt>
      <trkpt lat="45.14082" lon="3.89955">
        <ele>625.85</ele>
        <time>2019-01-24T13:41:34.000Z</time>
      </trkpt>
      <trkpt lat="45.1409" lon="3.89951">
        <ele>632.08</ele>
        <time>2019-01-24T13:41:44.000Z</time>
      </trkpt>
      <trkpt lat="45.141" lon="3.89948">
        <ele>627.79</ele>
        <time>2019-01-24T13:41:54.000Z</time>
      </trkpt>
      <trkpt lat="45.1411" lon="3.89944">
        <ele>626.61</ele>
        <time>2019-01-24T13:42:04.000Z</time>
      </trkpt>
      <trkpt lat="45.1412" lon="3.89937">
        <ele>627.76</ele>
        <time>2019-01-24T13:42:14.000Z</time>
      </trkpt>
      <trkpt lat="45.14127" lon="3.89929">
        <ele>628.86</ele>
        <time>2019-01-24T13:42:24.000Z</time>
      </trkpt>
      <trkpt lat="45.14137" lon="3.89921">
        <ele>628.91</ele>
        <time>2019-01-24T13:42:34.000Z</time>
      </trkpt>
      <trkpt lat="45.14147" lon="3.89912">
        <ele>629.03</ele>
        <time>2019-01-24T13:42:44.000Z</time>
      </trkpt>
      <trkpt lat="45.14157" lon="3.89903">
        <ele>627.19</ele>
        <time>2019-01-24T13:42:54.000Z</time>
      </trkpt>
      <trkpt lat="45.14167" lon="3.89895">
        <ele>628.86</ele>
        <time>2019-01-24T13:43:04.000Z</time>
      </trkpt>
      <trkpt lat="45.14176" lon="3.89887">
        <ele>629.93</ele>
        <time>2019-01-24T13:43:14.000Z</time>
      </trkpt>
      <trkpt lat="45.14185" lon="3.89878">
        <ele>629.43</ele>
        <time>2019-01-24T13:43:24.000Z</time>
      </trkpt>
      <trkpt lat="45.14195" lon="3.89869">
        <ele>627.82</ele>
        <time>2019-01-24T13:43:34.000Z</time>
      </trkpt>
      <trkpt lat="45.14206" lon="3.89859">
        <ele>628.47</ele>
        <time>2019-01-24T13:43:44.000Z</time>
      </trkpt>
      <trkpt lat="45.14216" lon="3.89851">
        <ele>627.97</ele>
        <time>2019-01-24T13:43:54.000Z</time>
      </trkpt>
      <trkpt lat="45.14224" lon="3.89842">
        <ele>627.13</ele>
        <time>2019-01-24T13:44:04.000Z</time>
      </trkpt>
      <trkpt lat="45.14232" lon="3.89836">
        <ele>626.42</ele>
        <time>2019-01-24T13:44:14.000Z</time>
      </trkpt>
      <trkpt lat="45.14243" lon="3.89828">
        <ele>628.14</ele>
        <time>2019-01-24T13:44:24.000Z</time>
      </trkpt>
      <trkpt lat="45.14252" lon="3.8982">
        <ele>626.78</ele>
        <time>2019-01-24T13:44:34.000Z</time>
      </trkpt>
      <trkpt lat="45.14261" lon="3.8981">
        <ele>625.41</ele>
        <time>2019-01-24T13:44:44.000Z</time>
      </trkpt>
      <trkpt lat="45.14268" lon="3.89799">
        <ele>625.33</ele>
        <time>2019-01-24T13:44:54.000Z</time>
      </trkpt>
      <trkpt lat="45.14277" lon="3.8979">
        <ele>623.37</ele>
        <time>2019-01-24T13:45:04.000Z</time>
      </trkpt>
      <trkpt lat="45.14284" lon="3.89783">
        <ele>621.45</ele>
        <time>2019-01-24T13:45:14.000Z</time>
      </trkpt>
      <trkpt lat="45.14294" lon="3.89775">
        <ele>620.63</ele>
        <time>2019-01-24T13:45:24.000Z</time>
      </trkpt>
      <trkpt lat="45.14304" lon="3.89767">
        <ele>620.93</ele>
        <time>2019-01-24T13:45:34.000Z</time>
      </trkpt>
      <trkpt lat="45.14312" lon="3.89759">
        <ele>621.34</ele>
        <time>2019-01-24T13:45:44.000Z</time>
      </trkpt>
      <trkpt lat="45.1432" lon="3.89749">
        <ele>623.4</ele>
        <time>2019-01-24T13:45:54.000Z</time>
      </trkpt>
      <trkpt lat="45.14331" lon="3.89741">
        <ele>623.5</ele>
        <time>2019-01-24T13:46:04.000Z</time>
      </trkpt>
      <trkpt lat="45.14338" lon="3.89732">
        <ele>624.12</ele>
        <time>2019-01-24T13:46:14.000Z</time>
      </trkpt>
      <trkpt lat="45.14346" lon="3.89723">
        <ele>626.72</ele>
        <time>2019-01-24T13:46:24.000Z</time>
      </trkpt>
      <trkpt lat="45.14353" lon="3.89716">
        <ele>626.47</ele>
        <time>2019-01-24T13:46:34.000Z</time>
      </trkpt>
      <trkpt lat="45.14361" lon="3.89705">
        <ele>626.46</ele>
        <time>2019-01-24T13:46:44.000Z</time>
      </trkpt>
      <trkpt lat="45.14369" lon="3.89696">
        <ele>625.79</ele>
        <time>2019-01-24T13:46:54.000Z</time>
      </trkpt>
      <trkpt lat="45.14378" lon="3.89687">
        <ele>626.38</ele>
        <time>2019-01-24T13:47:04.000Z</time>
      </trkpt>
      <trkpt lat="45.14386" lon="3.89676">
        <ele>627.44</ele>
        <time>2019-01-24T13:47:14.000Z</time>
      </trkpt>
      <trkpt lat="45.14395" lon="3.89666">
        <ele>630.78</ele>
        <time>2019-01-24T13:47:24.000Z</time>
      </trkpt>
      <trkpt lat="45.14404" lon="3.89656">
        <ele>629.15</ele>
        <time>2019-01-24T13:47:34.000Z</time>
      </trkpt>
      <trkpt lat="45.1441" lon="3.89645">
        <ele>628.39</ele>
        <time>2019-01-24T13:47:44.000Z</time>
      </trkpt>
      <trkpt lat="45.14415" lon="3.8964">
        <ele>626.15</ele>
        <time>2019-01-24T13:47:54.000Z</time>
      </trkpt>
      <trkpt lat="45.14428" lon="3.89638">
        <ele>627.59</ele>
        <time>2019-01-24T13:48:04.000Z</time>
      </trkpt>
      <trkpt lat="45.14439" lon="3.89638">
        <ele>624.71</ele>
        <time>2019-01-24T13:48:14.000Z</time>
      </trkpt>
      <trkpt lat="45.14447" lon="3.89643">
        <ele>625.35</ele>
        <time>2019-01-24T13:48:24.000Z</time>
      </trkpt>
      <trkpt lat="45.14458" lon="3.89644">
        <ele>628.11</ele>
        <time>2019-01-24T13:48:34.000Z</time>
      </trkpt>
      <trkpt lat="45.14469" lon="3.89643">
        <ele>626</ele>
        <time>2019-01-24T13:48:44.000Z</time>
      </trkpt>
      <trkpt lat="45.1448" lon="3.8964">
        <ele>625.23</ele>
        <time>2019-01-24T13:48:54.000Z</time>
      </trkpt>
      <trkpt lat="45.14488" lon="3.89639">
        <ele>628.45</ele>
        <time>2019-01-24T13:49:04.000Z</time>
      </trkpt>
      <trkpt lat="45.14498" lon="3.89634">
        <ele>629.19</ele>
        <time>2019-01-24T13:49:14.000Z</time>
      </trkpt>
      <trkpt lat="45.14511" lon="3.89629">
        <ele>630.18</ele>
        <time>2019-01-24T13:49:24.000Z</time>
      </trkpt>
      <trkpt lat="45.14522" lon="3.89623">
        <ele>627.04</ele>
        <time>2019-01-24T13:49:34.000Z</time>
      </trkpt>
      <trkpt lat="45.14532" lon="3.89621">
        <ele>628.11</ele>
        <time>2019-01-24T13:49:44.000Z</time>
      </trkpt>
      <trkpt lat="45.1454" lon="3.89622">
        <ele>628.88</ele>
        <time>2019-01-24T13:49:54.000Z</time>
      </trkpt>
      <trkpt lat="45.1455" lon="3.89621">
        <ele>625.28</ele>
        <time>2019-01-24T13:50:04.000Z</time>
      </trkpt>
      <trkpt lat="45.1456" lon="3.89614">
        <ele>625.8</ele>
        <time>2019-01-24T13:50:14.000Z</time>
      </trkpt>
      <trkpt lat="45.14572" lon="3.89613">
        <ele>625.27</ele>
        <time>2019-01-24T13:50:24.000Z</time>
      </trkpt>
      <trkpt lat="45.14584" lon="3.89611">
        <ele>624.57</ele>
        <time>2019-01-24T13:50:34.000Z</time>
      </trkpt>
      <trkpt lat="45.14595" lon="3.8961">
        <ele>625.38</ele>
        <time>2019-01-24T13:50:44.000Z</time>
      </trkpt>
      <trkpt lat="45.14606" lon="3.8961">
        <ele>623.38</ele>
        <time>2019-01-24T13:50:54.000Z</time>
      </trkpt>
      <trkpt lat="45.14614" lon="3.89607">
        <ele>632.4</ele>
        <time>2019-01-24T13:51:04.000Z</time>
      </trkpt>
      <trkpt lat="45.14624" lon="3.89602">
        <ele>638.33</ele>
        <time>2019-01-24T13:51:14.000Z</time>
      </trkpt>
      <trkpt lat="45.14631" lon="3.896">
        <ele>632.72</ele>
        <time>2019-01-24T13:51:24.000Z</time>
      </trkpt>
      <trkpt lat="45.14643" lon="3.89597">
        <ele>630.22</ele>
        <time>2019-01-24T13:51:34.000Z</time>
      </trkpt>
      <trkpt lat="45.14656" lon="3.89595">
        <ele>627.58</ele>
        <time>2019-01-24T13:51:44.000Z</time>
      </trkpt>
      <trkpt lat="45.14666" lon="3.89593">
        <ele>625.8</ele>
        <time>2019-01-24T13:51:54.000Z</time>
      </trkpt>
      <trkpt lat="45.14674" lon="3.89592">
        <ele>633.66</ele>
        <time>2019-01-24T13:52:04.000Z</time>
      </trkpt>
      <trkpt lat="45.1468" lon="3.8959">
        <ele>641.04</ele>
        <time>2019-01-24T13:52:14.000Z</time>
      </trkpt>
      <trkpt lat="45.14691" lon="3.89588">
        <ele>642.54</ele>
        <time>2019-01-24T13:52:24.000Z</time>
      </trkpt>
      <trkpt lat="45.14701" lon="3.89588">
        <ele>641.99</ele>
        <time>2019-01-24T13:52:34.000Z</time>
      </trkpt>
      <trkpt lat="45.14713" lon="3.8959">
        <ele>637.21</ele>
        <time>2019-01-24T13:52:44.000Z</time>
      </trkpt>
      <trkpt lat="45.14724" lon="3.89591">
        <ele>634.4</ele>
        <time>2019-01-24T13:52:54.000Z</time>
      </trkpt>
      <trkpt lat="45.14733" lon="3.89592">
        <ele>631.58</ele>
        <time>2019-01-24T13:53:04.000Z</time>
      </trkpt>
      <trkpt lat="45.14743" lon="3.8959">
        <ele>630.38</ele>
        <time>2019-01-24T13:53:14.000Z</time>
      </trkpt>
      <trkpt lat="45.14753" lon="3.89589">
        <ele>624.41</ele>
        <time>2019-01-24T13:53:24.000Z</time>
      </trkpt>
      <trkpt lat="45.14765" lon="3.89587">
        <ele>623.62</ele>
        <time>2019-01-24T13:53:34.000Z</time>
      </trkpt>
      <trkpt lat="45.14776" lon="3.89583">
        <ele>622.58</ele>
        <time>2019-01-24T13:53:44.000Z</time>
      </trkpt>
      <trkpt lat="45.14785" lon="3.89579">
        <ele>621.61</ele>
        <time>2019-01-24T13:53:54.000Z</time>
      </trkpt>
      <trkpt lat="45.14796" lon="3.89573">
        <ele>621.61</ele>
        <time>2019-01-24T13:54:04.000Z</time>
      </trkpt>
      <trkpt lat="45.14808" lon="3.89567">
        <ele>622</ele>
        <time>2019-01-24T13:54:14.000Z</time>
      </trkpt>
      <trkpt lat="45.14818" lon="3.8956">
        <ele>622.2</ele>
        <time>2019-01-24T13:54:24.000Z</time>
      </trkpt>
      <trkpt lat="45.14827" lon="3.89551">
        <ele>622.79</ele>
        <time>2019-01-24T13:54:34.000Z</time>
      </trkpt>
      <trkpt lat="45.14835" lon="3.89543">
        <ele>622.34</ele>
        <time>2019-01-24T13:54:44.000Z</time>
      </trkpt>
      <trkpt lat="45.14846" lon="3.89535">
        <ele>623.45</ele>
        <time>2019-01-24T13:54:54.000Z</time>
      </trkpt>
      <trkpt lat="45.14855" lon="3.89529">
        <ele>620.36</ele>
        <time>2019-01-24T13:55:04.000Z</time>
      </trkpt>
      <trkpt lat="45.14864" lon="3.89524">
        <ele>615.94</ele>
        <time>2019-01-24T13:55:14.000Z</time>
      </trkpt>
      <trkpt lat="45.14874" lon="3.89519">
        <ele>615.13</ele>
        <time>2019-01-24T13:55:24.000Z</time>
      </trkpt>
      <trkpt lat="45.14884" lon="3.89517">
        <ele>614.67</ele>
        <time>2019-01-24T13:55:34.000Z</time>
      </trkpt>
      <trkpt lat="45.14894" lon="3.89514">
        <ele>616.34</ele>
        <time>2019-01-24T13:55:44.000Z</time>
      </trkpt>
      <trkpt lat="45.14905" lon="3.8951">
        <ele>617.72</ele>
        <time>2019-01-24T13:55:54.000Z</time>
      </trkpt>
      <trkpt lat="45.14918" lon="3.89508">
        <ele>614.95</ele>
        <time>2019-01-24T13:56:04.000Z</time>
      </trkpt>
      <trkpt lat="45.14927" lon="3.89504">
        <ele>616.07</ele>
        <time>2019-01-24T13:56:14.000Z</time>
      </trkpt>
      <trkpt lat="45.14939" lon="3.895">
        <ele>617.2</ele>
        <time>2019-01-24T13:56:24.000Z</time>
      </trkpt>
      <trkpt lat="45.1495" lon="3.89494">
        <ele>615.31</ele>
        <time>2019-01-24T13:56:34.000Z</time>
      </trkpt>
      <trkpt lat="45.14957" lon="3.89488">
        <ele>612.28</ele>
        <time>2019-01-24T13:56:44.000Z</time>
      </trkpt>
      <trkpt lat="45.14966" lon="3.89482">
        <ele>611.02</ele>
        <time>2019-01-24T13:56:54.000Z</time>
      </trkpt>
      <trkpt lat="45.14975" lon="3.89475">
        <ele>612.94</ele>
        <time>2019-01-24T13:57:04.000Z</time>
      </trkpt>
      <trkpt lat="45.14982" lon="3.89469">
        <ele>608.22</ele>
        <time>2019-01-24T13:57:14.000Z</time>
      </trkpt>
      <trkpt lat="45.14992" lon="3.89463">
        <ele>608.83</ele>
        <time>2019-01-24T13:57:24.000Z</time>
      </trkpt>
      <trkpt lat="45.14999" lon="3.89457">
        <ele>604.41</ele>
        <time>2019-01-24T13:57:34.000Z</time>
      </trkpt>
      <trkpt lat="45.15011" lon="3.8945">
        <ele>603.66</ele>
        <time>2019-01-24T13:57:44.000Z</time>
      </trkpt>
      <trkpt lat="45.15026" lon="3.8944">
        <ele>609.86</ele>
        <time>2019-01-24T13:57:54.000Z</time>
      </trkpt>
      <trkpt lat="45.15036" lon="3.89434">
        <ele>611.33</ele>
        <time>2019-01-24T13:58:04.000Z</time>
      </trkpt>
      <trkpt lat="45.15044" lon="3.89428">
        <ele>610.1</ele>
        <time>2019-01-24T13:58:14.000Z</time>
      </trkpt>
      <trkpt lat="45.15055" lon="3.89423">
        <ele>612.33</ele>
        <time>2019-01-24T13:58:24.000Z</time>
      </trkpt>
      <trkpt lat="45.15063" lon="3.89419">
        <ele>611.91</ele>
        <time>2019-01-24T13:58:34.000Z</time>
      </trkpt>
      <trkpt lat="45.15071" lon="3.8941">
        <ele>615.11</ele>
        <time>2019-01-24T13:58:44.000Z</time>
      </trkpt>
      <trkpt lat="45.1508" lon="3.89403">
        <ele>614.92</ele>
        <time>2019-01-24T13:58:54.000Z</time>
      </trkpt>
      <trkpt lat="45.15087" lon="3.89394">
        <ele>616.41</ele>
        <time>2019-01-24T13:59:04.000Z</time>
      </trkpt>
      <trkpt lat="45.15095" lon="3.89391">
        <ele>615.92</ele>
        <time>2019-01-24T13:59:14.000Z</time>
      </trkpt>
      <trkpt lat="45.15106" lon="3.89383">
        <ele>613.52</ele>
        <time>2019-01-24T13:59:24.000Z</time>
      </trkpt>
      <trkpt lat="45.15116" lon="3.89376">
        <ele>614.43</ele>
        <time>2019-01-24T13:59:34.000Z</time>
      </trkpt>
      <trkpt lat="45.15125" lon="3.89368">
        <ele>616.31</ele>
        <time>2019-01-24T13:59:44.000Z</time>
      </trkpt>
      <trkpt lat="45.15135" lon="3.89359">
        <ele>617.34</ele>
        <time>2019-01-24T13:59:54.000Z</time>
      </trkpt>
      <trkpt lat="45.15143" lon="3.89354">
        <ele>614.31</ele>
        <time>2019-01-24T14:00:04.000Z</time>
      </trkpt>
      <trkpt lat="45.15151" lon="3.89347">
        <ele>612.41</ele>
        <time>2019-01-24T14:00:14.000Z</time>
      </trkpt>
      <trkpt lat="45.15161" lon="3.89343">
        <ele>607.01</ele>
        <time>2019-01-24T14:00:24.000Z</time>
      </trkpt>
      <trkpt lat="45.1517" lon="3.89338">
        <ele>604.87</ele>
        <time>2019-01-24T14:00:34.000Z</time>
      </trkpt>
      <trkpt lat="45.15175" lon="3.89337">
        <ele>606.7</ele>
        <time>2019-01-24T14:00:44.000Z</time>
      </trkpt>
      <trkpt lat="45.15178" lon="3.89339">
        <ele>609.55</ele>
        <time>2019-01-24T14:01:03.000Z</time>
      </trkpt>
      <trkpt lat="45.15181" lon="3.89336">
        <ele>610.52</ele>
        <time>2019-01-24T14:01:13.000Z</time>
      </trkpt>
      <trkpt lat="45.1519" lon="3.89332">
        <ele>613.05</ele>
        <time>2019-01-24T14:01:23.000Z</time>
      </trkpt>
      <trkpt lat="45.15196" lon="3.89326">
        <ele>615.61</ele>
        <time>2019-01-24T14:01:33.000Z</time>
      </trkpt>
      <trkpt lat="45.15201" lon="3.89319">
        <ele>617.41</ele>
        <time>2019-01-24T14:01:43.000Z</time>
      </trkpt>
      <trkpt lat="45.15209" lon="3.89313">
        <ele>615.82</ele>
        <time>2019-01-24T14:01:53.000Z</time>
      </trkpt>
      <trkpt lat="45.1522" lon="3.89306">
        <ele>615.11</ele>
        <time>2019-01-24T14:02:03.000Z</time>
      </trkpt>
      <trkpt lat="45.15229" lon="3.89303">
        <ele>613.65</ele>
        <time>2019-01-24T14:02:13.000Z</time>
      </trkpt>
      <trkpt lat="45.15238" lon="3.89299">
        <ele>614.57</ele>
        <time>2019-01-24T14:02:23.000Z</time>
      </trkpt>
      <trkpt lat="45.15247" lon="3.893">
        <ele>614.94</ele>
        <time>2019-01-24T14:02:33.000Z</time>
      </trkpt>
      <trkpt lat="45.15255" lon="3.89297">
        <ele>614.06</ele>
        <time>2019-01-24T14:02:43.000Z</time>
      </trkpt>
      <trkpt lat="45.15263" lon="3.89295">
        <ele>612.39</ele>
        <time>2019-01-24T14:02:53.000Z</time>
      </trkpt>
      <trkpt lat="45.15273" lon="3.89292">
        <ele>612.84</ele>
        <time>2019-01-24T14:03:03.000Z</time>
      </trkpt>
      <trkpt lat="45.15282" lon="3.89292">
        <ele>614.9</ele>
        <time>2019-01-24T14:03:13.000Z</time>
      </trkpt>
      <trkpt lat="45.15291" lon="3.89289">
        <ele>615.66</ele>
        <time>2019-01-24T14:03:23.000Z</time>
      </trkpt>
      <trkpt lat="45.15296" lon="3.89285">
        <ele>613.12</ele>
        <time>2019-01-24T14:03:33.000Z</time>
      </trkpt>
      <trkpt lat="45.15303" lon="3.89278">
        <ele>613.1</ele>
        <time>2019-01-24T14:03:43.000Z</time>
      </trkpt>
      <trkpt lat="45.15312" lon="3.89272">
        <ele>615.68</ele>
        <time>2019-01-24T14:03:53.000Z</time>
      </trkpt>
      <trkpt lat="45.15321" lon="3.89268">
        <ele>616.8</ele>
        <time>2019-01-24T14:04:03.000Z</time>
      </trkpt>
      <trkpt lat="45.1533" lon="3.89266">
        <ele>616.3</ele>
        <time>2019-01-24T14:04:13.000Z</time>
      </trkpt>
      <trkpt lat="45.15337" lon="3.89266">
        <ele>616.04</ele>
        <time>2019-01-24T14:04:23.000Z</time>
      </trkpt>
      <trkpt lat="45.15345" lon="3.89265">
        <ele>613.47</ele>
        <time>2019-01-24T14:04:33.000Z</time>
      </trkpt>
      <trkpt lat="45.15354" lon="3.89265">
        <ele>613.15</ele>
        <time>2019-01-24T14:04:43.000Z</time>
      </trkpt>
      <trkpt lat="45.15364" lon="3.89266">
        <ele>614.48</ele>
        <time>2019-01-24T14:04:53.000Z</time>
      </trkpt>
      <trkpt lat="45.15374" lon="3.89267">
        <ele>612.86</ele>
        <time>2019-01-24T14:05:03.000Z</time>
      </trkpt>
      <trkpt lat="45.15382" lon="3.89268">
        <ele>613.53</ele>
        <time>2019-01-24T14:05:13.000Z</time>
      </trkpt>
      <trkpt lat="45.15392" lon="3.8927">
        <ele>612.24</ele>
        <time>2019-01-24T14:05:23.000Z</time>
      </trkpt>
      <trkpt lat="45.15401" lon="3.8927">
        <ele>614.46</ele>
        <time>2019-01-24T14:05:33.000Z</time>
      </trkpt>
      <trkpt lat="45.15408" lon="3.89271">
        <ele>620.68</ele>
        <time>2019-01-24T14:05:43.000Z</time>
      </trkpt>
      <trkpt lat="45.15418" lon="3.89273">
        <ele>620.96</ele>
        <time>2019-01-24T14:05:53.000Z</time>
      </trkpt>
      <trkpt lat="45.15431" lon="3.89272">
        <ele>616.97</ele>
        <time>2019-01-24T14:06:03.000Z</time>
      </trkpt>
      <trkpt lat="45.15438" lon="3.8927">
        <ele>616.22</ele>
        <time>2019-01-24T14:06:13.000Z</time>
      </trkpt>
      <trkpt lat="45.15444" lon="3.89271">
        <ele>614.23</ele>
        <time>2019-01-24T14:06:23.000Z</time>
      </trkpt>
      <trkpt lat="45.15454" lon="3.89271">
        <ele>614.93</ele>
        <time>2019-01-24T14:06:33.000Z</time>
      </trkpt>
      <trkpt lat="45.15466" lon="3.89271">
        <ele>616.2</ele>
        <time>2019-01-24T14:06:43.000Z</time>
      </trkpt>
      <trkpt lat="45.15477" lon="3.89272">
        <ele>614.11</ele>
        <time>2019-01-24T14:06:53.000Z</time>
      </trkpt>
      <trkpt lat="45.15488" lon="3.89271">
        <ele>612.18</ele>
        <time>2019-01-24T14:07:03.000Z</time>
      </trkpt>
      <trkpt lat="45.15498" lon="3.89271">
        <ele>617.44</ele>
        <time>2019-01-24T14:07:13.000Z</time>
      </trkpt>
      <trkpt lat="45.15509" lon="3.89268">
        <ele>618.24</ele>
        <time>2019-01-24T14:07:23.000Z</time>
      </trkpt>
      <trkpt lat="45.15519" lon="3.89267">
        <ele>621.17</ele>
        <time>2019-01-24T14:07:33.000Z</time>
      </trkpt>
      <trkpt lat="45.15529" lon="3.89263">
        <ele>621.72</ele>
        <time>2019-01-24T14:07:43.000Z</time>
      </trkpt>
      <trkpt lat="45.15538" lon="3.89262">
        <ele>625.22</ele>
        <time>2019-01-24T14:07:53.000Z</time>
      </trkpt>
      <trkpt lat="45.15546" lon="3.89259">
        <ele>625.74</ele>
        <time>2019-01-24T14:08:03.000Z</time>
      </trkpt>
      <trkpt lat="45.15557" lon="3.89253">
        <ele>627.68</ele>
        <time>2019-01-24T14:08:13.000Z</time>
      </trkpt>
      <trkpt lat="45.15566" lon="3.89248">
        <ele>629.52</ele>
        <time>2019-01-24T14:08:23.000Z</time>
      </trkpt>
      <trkpt lat="45.15573" lon="3.8924">
        <ele>628.54</ele>
        <time>2019-01-24T14:08:33.000Z</time>
      </trkpt>
      <trkpt lat="45.15581" lon="3.89229">
        <ele>628.78</ele>
        <time>2019-01-24T14:08:43.000Z</time>
      </trkpt>
      <trkpt lat="45.15585" lon="3.89225">
        <ele>630.41</ele>
        <time>2019-01-24T14:08:53.000Z</time>
      </trkpt>
      <trkpt lat="45.15582" lon="3.89224">
        <ele>630.9</ele>
        <time>2019-01-24T14:09:07.000Z</time>
      </trkpt>
      <trkpt lat="45.15584" lon="3.89213">
        <ele>629.28</ele>
        <time>2019-01-24T14:09:17.000Z</time>
      </trkpt>
      <trkpt lat="45.15587" lon="3.89198">
        <ele>627.24</ele>
        <time>2019-01-24T14:09:27.000Z</time>
      </trkpt>
      <trkpt lat="45.15593" lon="3.89189">
        <ele>626.36</ele>
        <time>2019-01-24T14:09:37.000Z</time>
      </trkpt>
      <trkpt lat="45.15602" lon="3.89179">
        <ele>623.69</ele>
        <time>2019-01-24T14:09:47.000Z</time>
      </trkpt>
      <trkpt lat="45.15609" lon="3.89167">
        <ele>622.85</ele>
        <time>2019-01-24T14:09:57.000Z</time>
      </trkpt>
      <trkpt lat="45.15617" lon="3.89158">
        <ele>622.79</ele>
        <time>2019-01-24T14:10:07.000Z</time>
      </trkpt>
      <trkpt lat="45.15625" lon="3.8915">
        <ele>619.29</ele>
        <time>2019-01-24T14:10:17.000Z</time>
      </trkpt>
      <trkpt lat="45.15632" lon="3.89139">
        <ele>617.01</ele>
        <time>2019-01-24T14:10:27.000Z</time>
      </trkpt>
      <trkpt lat="45.15646" lon="3.8913">
        <ele>622.65</ele>
        <time>2019-01-24T14:10:37.000Z</time>
      </trkpt>
      <trkpt lat="45.15655" lon="3.89124">
        <ele>620.74</ele>
        <time>2019-01-24T14:10:47.000Z</time>
      </trkpt>
      <trkpt lat="45.15665" lon="3.89116">
        <ele>620.91</ele>
        <time>2019-01-24T14:10:57.000Z</time>
      </trkpt>
      <trkpt lat="45.15675" lon="3.89111">
        <ele>624.79</ele>
        <time>2019-01-24T14:11:07.000Z</time>
      </trkpt>
      <trkpt lat="45.15684" lon="3.8911">
        <ele>620.86</ele>
        <time>2019-01-24T14:11:17.000Z</time>
      </trkpt>
      <trkpt lat="45.15694" lon="3.89109">
        <ele>620.57</ele>
        <time>2019-01-24T14:11:27.000Z</time>
      </trkpt>
      <trkpt lat="45.15702" lon="3.89109">
        <ele>618.02</ele>
        <time>2019-01-24T14:11:37.000Z</time>
      </trkpt>
      <trkpt lat="45.15712" lon="3.89111">
        <ele>616.06</ele>
        <time>2019-01-24T14:11:47.000Z</time>
      </trkpt>
      <trkpt lat="45.15726" lon="3.89107">
        <ele>620.81</ele>
        <time>2019-01-24T14:11:57.000Z</time>
      </trkpt>
      <trkpt lat="45.15737" lon="3.89107">
        <ele>623.08</ele>
        <time>2019-01-24T14:12:07.000Z</time>
      </trkpt>
      <trkpt lat="45.15749" lon="3.89105">
        <ele>624.89</ele>
        <time>2019-01-24T14:12:17.000Z</time>
      </trkpt>
      <trkpt lat="45.1576" lon="3.89106">
        <ele>623.12</ele>
        <time>2019-01-24T14:12:27.000Z</time>
      </trkpt>
      <trkpt lat="45.15771" lon="3.89105">
        <ele>620.62</ele>
        <time>2019-01-24T14:12:37.000Z</time>
      </trkpt>
      <trkpt lat="45.15778" lon="3.89106">
        <ele>619.12</ele>
        <time>2019-01-24T14:12:47.000Z</time>
      </trkpt>
      <trkpt lat="45.15782" lon="3.89104">
        <ele>614.64</ele>
        <time>2019-01-24T14:12:57.000Z</time>
      </trkpt>
      <trkpt lat="45.15783" lon="3.89106">
        <ele>617.34</ele>
        <time>2019-01-24T14:13:07.000Z</time>
      </trkpt>
      <trkpt lat="45.15785" lon="3.89107">
        <ele>625.89</ele>
        <time>2019-01-24T14:13:18.000Z</time>
      </trkpt>
      <trkpt lat="45.15794" lon="3.89108">
        <ele>622.87</ele>
        <time>2019-01-24T14:13:28.000Z</time>
      </trkpt>
      <trkpt lat="45.15806" lon="3.89111">
        <ele>622.71</ele>
        <time>2019-01-24T14:13:38.000Z</time>
      </trkpt>
      <trkpt lat="45.15817" lon="3.89113">
        <ele>624.2</ele>
        <time>2019-01-24T14:13:48.000Z</time>
      </trkpt>
      <trkpt lat="45.15827" lon="3.89116">
        <ele>623.62</ele>
        <time>2019-01-24T14:13:58.000Z</time>
      </trkpt>
      <trkpt lat="45.15838" lon="3.89118">
        <ele>621.91</ele>
        <time>2019-01-24T14:14:08.000Z</time>
      </trkpt>
      <trkpt lat="45.15846" lon="3.89118">
        <ele>624.2</ele>
        <time>2019-01-24T14:14:18.000Z</time>
      </trkpt>
      <trkpt lat="45.15858" lon="3.89118">
        <ele>623.58</ele>
        <time>2019-01-24T14:14:28.000Z</time>
      </trkpt>
      <trkpt lat="45.15869" lon="3.89115">
        <ele>625.99</ele>
        <time>2019-01-24T14:14:38.000Z</time>
      </trkpt>
      <trkpt lat="45.15882" lon="3.8911">
        <ele>628.03</ele>
        <time>2019-01-24T14:14:48.000Z</time>
      </trkpt>
      <trkpt lat="45.15892" lon="3.89106">
        <ele>626.05</ele>
        <time>2019-01-24T14:14:58.000Z</time>
      </trkpt>
      <trkpt lat="45.15902" lon="3.89101">
        <ele>627.27</ele>
        <time>2019-01-24T14:15:08.000Z</time>
      </trkpt>
      <trkpt lat="45.15911" lon="3.89096">
        <ele>626.95</ele>
        <time>2019-01-24T14:15:18.000Z</time>
      </trkpt>
      <trkpt lat="45.15921" lon="3.89094">
        <ele>624.77</ele>
        <time>2019-01-24T14:15:28.000Z</time>
      </trkpt>
      <trkpt lat="45.15931" lon="3.89089">
        <ele>626.59</ele>
        <time>2019-01-24T14:15:38.000Z</time>
      </trkpt>
      <trkpt lat="45.15943" lon="3.89085">
        <ele>628.76</ele>
        <time>2019-01-24T14:15:48.000Z</time>
      </trkpt>
      <trkpt lat="45.15953" lon="3.89081">
        <ele>628.63</ele>
        <time>2019-01-24T14:15:58.000Z</time>
      </trkpt>
      <trkpt lat="45.15962" lon="3.89077">
        <ele>627.15</ele>
        <time>2019-01-24T14:16:08.000Z</time>
      </trkpt>
      <trkpt lat="45.1597" lon="3.89073">
        <ele>625.61</ele>
        <time>2019-01-24T14:16:18.000Z</time>
      </trkpt>
      <trkpt lat="45.1598" lon="3.89067">
        <ele>624.02</ele>
        <time>2019-01-24T14:16:28.000Z</time>
      </trkpt>
      <trkpt lat="45.1599" lon="3.89063">
        <ele>621.61</ele>
        <time>2019-01-24T14:16:38.000Z</time>
      </trkpt>
      <trkpt lat="45.16" lon="3.89058">
        <ele>621.05</ele>
        <time>2019-01-24T14:16:48.000Z</time>
      </trkpt>
      <trkpt lat="45.16009" lon="3.8905">
        <ele>622.09</ele>
        <time>2019-01-24T14:16:58.000Z</time>
      </trkpt>
      <trkpt lat="45.16019" lon="3.89043">
        <ele>622.7</ele>
        <time>2019-01-24T14:17:08.000Z</time>
      </trkpt>
      <trkpt lat="45.16027" lon="3.89037">
        <ele>622.27</ele>
        <time>2019-01-24T14:17:18.000Z</time>
      </trkpt>
      <trkpt lat="45.16036" lon="3.89032">
        <ele>621.47</ele>
        <time>2019-01-24T14:17:28.000Z</time>
      </trkpt>
      <trkpt lat="45.16044" lon="3.89025">
        <ele>620.86</ele>
        <time>2019-01-24T14:17:38.000Z</time>
      </trkpt>
      <trkpt lat="45.16058" lon="3.89017">
        <ele>625.5</ele>
        <time>2019-01-24T14:17:48.000Z</time>
      </trkpt>
      <trkpt lat="45.16065" lon="3.89006">
        <ele>629.49</ele>
        <time>2019-01-24T14:17:58.000Z</time>
      </trkpt>
      <trkpt lat="45.16071" lon="3.88996">
        <ele>627.1</ele>
        <time>2019-01-24T14:18:08.000Z</time>
      </trkpt>
      <trkpt lat="45.16077" lon="3.88986">
        <ele>626.73</ele>
        <time>2019-01-24T14:18:18.000Z</time>
      </trkpt>
      <trkpt lat="45.16082" lon="3.88972">
        <ele>629.76</ele>
        <time>2019-01-24T14:18:28.000Z</time>
      </trkpt>
      <trkpt lat="45.16088" lon="3.8896">
        <ele>628.24</ele>
        <time>2019-01-24T14:18:38.000Z</time>
      </trkpt>
      <trkpt lat="45.1609" lon="3.88957">
        <ele>628.3</ele>
        <time>2019-01-24T14:18:48.000Z</time>
      </trkpt>
      <trkpt lat="45.16088" lon="3.88958">
        <ele>630.98</ele>
        <time>2019-01-24T14:18:58.000Z</time>
      </trkpt>
      <trkpt lat="45.16088" lon="3.88955">
        <ele>625.62</ele>
        <time>2019-01-24T14:19:08.000Z</time>
      </trkpt>
      <trkpt lat="45.16087" lon="3.8895">
        <ele>619.48</ele>
        <time>2019-01-24T14:19:18.000Z</time>
      </trkpt>
      <trkpt lat="45.16091" lon="3.88949">
        <ele>620.7</ele>
        <time>2019-01-24T14:19:28.000Z</time>
      </trkpt>
      <trkpt lat="45.1609" lon="3.88946">
        <ele>623.59</ele>
        <time>2019-01-24T14:19:38.000Z</time>
      </trkpt>
      <trkpt lat="45.16095" lon="3.88944">
        <ele>618.65</ele>
        <time>2019-01-24T14:19:56.000Z</time>
      </trkpt>
      <trkpt lat="45.16104" lon="3.88945">
        <ele>621.62</ele>
        <time>2019-01-24T14:20:06.000Z</time>
      </trkpt>
      <trkpt lat="45.1611" lon="3.88945">
        <ele>617.49</ele>
        <time>2019-01-24T14:20:16.000Z</time>
      </trkpt>
      <trkpt lat="45.16114" lon="3.88946">
        <ele>613.04</ele>
        <time>2019-01-24T14:20:26.000Z</time>
      </trkpt>
      <trkpt lat="45.16128" lon="3.88948">
        <ele>613.73</ele>
        <time>2019-01-24T14:20:36.000Z</time>
      </trkpt>
      <trkpt lat="45.1614" lon="3.88947">
        <ele>613.99</ele>
        <time>2019-01-24T14:20:46.000Z</time>
      </trkpt>
      <trkpt lat="45.16142" lon="3.88947">
        <ele>613.5</ele>
        <time>2019-01-24T14:20:56.000Z</time>
      </trkpt>
      <trkpt lat="45.16139" lon="3.88947">
        <ele>616.65</ele>
        <time>2019-01-24T14:21:06.000Z</time>
      </trkpt>
      <trkpt lat="45.16139" lon="3.88948">
        <ele>618.57</ele>
        <time>2019-01-24T14:21:18.000Z</time>
      </trkpt>
      <trkpt lat="45.16144" lon="3.88955">
        <ele>620.76</ele>
        <time>2019-01-24T14:21:28.000Z</time>
      </trkpt>
      <trkpt lat="45.16147" lon="3.8896">
        <ele>623.4</ele>
        <time>2019-01-24T14:21:38.000Z</time>
      </trkpt>
      <trkpt lat="45.1615" lon="3.88965">
        <ele>623.32</ele>
        <time>2019-01-24T14:21:48.000Z</time>
      </trkpt>
      <trkpt lat="45.16152" lon="3.88972">
        <ele>621.26</ele>
        <time>2019-01-24T14:21:58.000Z</time>
      </trkpt>
      <trkpt lat="45.16157" lon="3.88985">
        <ele>621.32</ele>
        <time>2019-01-24T14:22:08.000Z</time>
      </trkpt>
      <trkpt lat="45.16162" lon="3.88996">
        <ele>620.43</ele>
        <time>2019-01-24T14:22:18.000Z</time>
      </trkpt>
      <trkpt lat="45.16166" lon="3.89006">
        <ele>618.31</ele>
        <time>2019-01-24T14:22:28.000Z</time>
      </trkpt>
      <trkpt lat="45.16175" lon="3.89019">
        <ele>622.93</ele>
        <time>2019-01-24T14:22:38.000Z</time>
      </trkpt>
      <trkpt lat="45.16178" lon="3.89031">
        <ele>623.97</ele>
        <time>2019-01-24T14:22:48.000Z</time>
      </trkpt>
      <trkpt lat="45.16179" lon="3.89039">
        <ele>623.46</ele>
        <time>2019-01-24T14:22:58.000Z</time>
      </trkpt>
      <trkpt lat="45.16178" lon="3.89042">
        <ele>621.5</ele>
        <time>2019-01-24T14:23:08.000Z</time>
      </trkpt>
      <trkpt lat="45.1618" lon="3.89042">
        <ele>621.58</ele>
        <time>2019-01-24T14:24:06.000Z</time>
      </trkpt>
      <trkpt lat="45.16184" lon="3.89046">
        <ele>619.48</ele>
        <time>2019-01-24T14:24:16.000Z</time>
      </trkpt>
      <trkpt lat="45.16188" lon="3.89054">
        <ele>617.01</ele>
        <time>2019-01-24T14:24:26.000Z</time>
      </trkpt>
      <trkpt lat="45.16192" lon="3.89063">
        <ele>616.07</ele>
        <time>2019-01-24T14:24:36.000Z</time>
      </trkpt>
      <trkpt lat="45.16198" lon="3.89072">
        <ele>619.57</ele>
        <time>2019-01-24T14:24:46.000Z</time>
      </trkpt>
      <trkpt lat="45.16202" lon="3.89084">
        <ele>616.46</ele>
        <time>2019-01-24T14:24:56.000Z</time>
      </trkpt>
      <trkpt lat="45.16206" lon="3.89096">
        <ele>610.91</ele>
        <time>2019-01-24T14:25:06.000Z</time>
      </trkpt>
      <trkpt lat="45.16212" lon="3.89108">
        <ele>612.91</ele>
        <time>2019-01-24T14:25:16.000Z</time>
      </trkpt>
      <trkpt lat="45.16215" lon="3.89115">
        <ele>613.78</ele>
        <time>2019-01-24T14:25:26.000Z</time>
      </trkpt>
      <trkpt lat="45.1622" lon="3.89123">
        <ele>615.53</ele>
        <time>2019-01-24T14:25:36.000Z</time>
      </trkpt>
      <trkpt lat="45.16227" lon="3.89136">
        <ele>614.71</ele>
        <time>2019-01-24T14:25:46.000Z</time>
      </trkpt>
      <trkpt lat="45.16232" lon="3.89144">
        <ele>612.32</ele>
        <time>2019-01-24T14:25:56.000Z</time>
      </trkpt>
      <trkpt lat="45.16234" lon="3.89155">
        <ele>612.49</ele>
        <time>2019-01-24T14:26:06.000Z</time>
      </trkpt>
      <trkpt lat="45.16237" lon="3.89166">
        <ele>610.03</ele>
        <time>2019-01-24T14:26:16.000Z</time>
      </trkpt>
      <trkpt lat="45.16244" lon="3.89172">
        <ele>603.28</ele>
        <time>2019-01-24T14:26:26.000Z</time>
      </trkpt>
      <trkpt lat="45.16249" lon="3.89187">
        <ele>604.8</ele>
        <time>2019-01-24T14:26:36.000Z</time>
      </trkpt>
      <trkpt lat="45.16252" lon="3.89203">
        <ele>612.08</ele>
        <time>2019-01-24T14:26:46.000Z</time>
      </trkpt>
      <trkpt lat="45.16262" lon="3.89211">
        <ele>614.69</ele>
        <time>2019-01-24T14:26:56.000Z</time>
      </trkpt>
      <trkpt lat="45.16268" lon="3.89226">
        <ele>613.14</ele>
        <time>2019-01-24T14:27:06.000Z</time>
      </trkpt>
      <trkpt lat="45.16269" lon="3.89239">
        <ele>609.34</ele>
        <time>2019-01-24T14:27:16.000Z</time>
      </trkpt>
      <trkpt lat="45.16271" lon="3.89251">
        <ele>607.91</ele>
        <time>2019-01-24T14:27:26.000Z</time>
      </trkpt>
      <trkpt lat="45.16276" lon="3.89263">
        <ele>613.08</ele>
        <time>2019-01-24T14:27:36.000Z</time>
      </trkpt>
      <trkpt lat="45.16282" lon="3.89277">
        <ele>617</ele>
        <time>2019-01-24T14:27:46.000Z</time>
      </trkpt>
      <trkpt lat="45.16283" lon="3.89282">
        <ele>614.9</ele>
        <time>2019-01-24T14:27:56.000Z</time>
      </trkpt>
      <trkpt lat="45.16283" lon="3.89291">
        <ele>613.6</ele>
        <time>2019-01-24T14:28:06.000Z</time>
      </trkpt>
      <trkpt lat="45.16283" lon="3.893">
        <ele>602.55</ele>
        <time>2019-01-24T14:28:16.000Z</time>
      </trkpt>
      <trkpt lat="45.16287" lon="3.89313">
        <ele>595.89</ele>
        <time>2019-01-24T14:28:26.000Z</time>
      </trkpt>
      <trkpt lat="45.16301" lon="3.8933">
        <ele>607.95</ele>
        <time>2019-01-24T14:28:36.000Z</time>
      </trkpt>
      <trkpt lat="45.16307" lon="3.89344">
        <ele>610.77</ele>
        <time>2019-01-24T14:28:46.000Z</time>
      </trkpt>
      <trkpt lat="45.16314" lon="3.89356">
        <ele>609.94</ele>
        <time>2019-01-24T14:28:56.000Z</time>
      </trkpt>
      <trkpt lat="45.1632" lon="3.89367">
        <ele>609.05</ele>
        <time>2019-01-24T14:29:06.000Z</time>
      </trkpt>
      <trkpt lat="45.16327" lon="3.89377">
        <ele>608.49</ele>
        <time>2019-01-24T14:29:16.000Z</time>
      </trkpt>
      <trkpt lat="45.16334" lon="3.89389">
        <ele>608.3</ele>
        <time>2019-01-24T14:29:26.000Z</time>
      </trkpt>
      <trkpt lat="45.1634" lon="3.89404">
        <ele>606.55</ele>
        <time>2019-01-24T14:29:36.000Z</time>
      </trkpt>
      <trkpt lat="45.16341" lon="3.89413">
        <ele>603.57</ele>
        <time>2019-01-24T14:29:46.000Z</time>
      </trkpt>
      <trkpt lat="45.16346" lon="3.8943">
        <ele>600.73</ele>
        <time>2019-01-24T14:29:56.000Z</time>
      </trkpt>
      <trkpt lat="45.16355" lon="3.89438">
        <ele>602.54</ele>
        <time>2019-01-24T14:30:06.000Z</time>
      </trkpt>
      <trkpt lat="45.16364" lon="3.89452">
        <ele>608.19</ele>
        <time>2019-01-24T14:30:16.000Z</time>
      </trkpt>
      <trkpt lat="45.1637" lon="3.89464">
        <ele>607.67</ele>
        <time>2019-01-24T14:30:26.000Z</time>
      </trkpt>
      <trkpt lat="45.16378" lon="3.89475">
        <ele>605.44</ele>
        <time>2019-01-24T14:30:36.000Z</time>
      </trkpt>
      <trkpt lat="45.16385" lon="3.89487">
        <ele>606.07</ele>
        <time>2019-01-24T14:30:46.000Z</time>
      </trkpt>
      <trkpt lat="45.16391" lon="3.89498">
        <ele>603.92</ele>
        <time>2019-01-24T14:30:56.000Z</time>
      </trkpt>
      <trkpt lat="45.16399" lon="3.89511">
        <ele>604.46</ele>
        <time>2019-01-24T14:31:06.000Z</time>
      </trkpt>
      <trkpt lat="45.16404" lon="3.89525">
        <ele>606.56</ele>
        <time>2019-01-24T14:31:16.000Z</time>
      </trkpt>
      <trkpt lat="45.16411" lon="3.89535">
        <ele>605.66</ele>
        <time>2019-01-24T14:31:26.000Z</time>
      </trkpt>
      <trkpt lat="45.16414" lon="3.89549">
        <ele>600.79</ele>
        <time>2019-01-24T14:31:36.000Z</time>
      </trkpt>
      <trkpt lat="45.16417" lon="3.8956">
        <ele>599.36</ele>
        <time>2019-01-24T14:31:46.000Z</time>
      </trkpt>
      <trkpt lat="45.16421" lon="3.8957">
        <ele>599.01</ele>
        <time>2019-01-24T14:31:56.000Z</time>
      </trkpt>
      <trkpt lat="45.16423" lon="3.89584">
        <ele>599.23</ele>
        <time>2019-01-24T14:32:06.000Z</time>
      </trkpt>
      <trkpt lat="45.16429" lon="3.89593">
        <ele>601.13</ele>
        <time>2019-01-24T14:32:16.000Z</time>
      </trkpt>
      <trkpt lat="45.16438" lon="3.896">
        <ele>602.67</ele>
        <time>2019-01-24T14:32:26.000Z</time>
      </trkpt>
      <trkpt lat="45.16442" lon="3.8961">
        <ele>602.05</ele>
        <time>2019-01-24T14:32:36.000Z</time>
      </trkpt>
      <trkpt lat="45.16449" lon="3.89622">
        <ele>598.8</ele>
        <time>2019-01-24T14:32:46.000Z</time>
      </trkpt>
      <trkpt lat="45.16455" lon="3.89634">
        <ele>600.21</ele>
        <time>2019-01-24T14:32:56.000Z</time>
      </trkpt>
      <trkpt lat="45.16461" lon="3.89646">
        <ele>601.35</ele>
        <time>2019-01-24T14:33:06.000Z</time>
      </trkpt>
      <trkpt lat="45.16467" lon="3.89655">
        <ele>597.73</ele>
        <time>2019-01-24T14:33:16.000Z</time>
      </trkpt>
      <trkpt lat="45.16471" lon="3.89665">
        <ele>601.41</ele>
        <time>2019-01-24T14:33:26.000Z</time>
      </trkpt>
      <trkpt lat="45.16478" lon="3.89675">
        <ele>602.03</ele>
        <time>2019-01-24T14:33:36.000Z</time>
      </trkpt>
      <trkpt lat="45.16485" lon="3.89684">
        <ele>599.06</ele>
        <time>2019-01-24T14:33:46.000Z</time>
      </trkpt>
      <trkpt lat="45.16492" lon="3.89697">
        <ele>597.59</ele>
        <time>2019-01-24T14:33:56.000Z</time>
      </trkpt>
      <trkpt lat="45.16496" lon="3.89707">
        <ele>595.82</ele>
        <time>2019-01-24T14:34:06.000Z</time>
      </trkpt>
      <trkpt lat="45.16499" lon="3.89714">
        <ele>594.09</ele>
        <time>2019-01-24T14:34:16.000Z</time>
      </trkpt>
      <trkpt lat="45.16505" lon="3.89725">
        <ele>596.29</ele>
        <time>2019-01-24T14:34:26.000Z</time>
      </trkpt>
      <trkpt lat="45.1651" lon="3.89737">
        <ele>596.74</ele>
        <time>2019-01-24T14:34:36.000Z</time>
      </trkpt>
      <trkpt lat="45.16516" lon="3.89749">
        <ele>598.15</ele>
        <time>2019-01-24T14:34:46.000Z</time>
      </trkpt>
      <trkpt lat="45.1652" lon="3.89763">
        <ele>597.55</ele>
        <time>2019-01-24T14:34:56.000Z</time>
      </trkpt>
      <trkpt lat="45.16524" lon="3.89775">
        <ele>596.68</ele>
        <time>2019-01-24T14:35:06.000Z</time>
      </trkpt>
      <trkpt lat="45.16527" lon="3.89783">
        <ele>591.64</ele>
        <time>2019-01-24T14:35:16.000Z</time>
      </trkpt>
      <trkpt lat="45.16529" lon="3.89796">
        <ele>593.92</ele>
        <time>2019-01-24T14:35:26.000Z</time>
      </trkpt>
      <trkpt lat="45.16531" lon="3.89803">
        <ele>595.4</ele>
        <time>2019-01-24T14:35:36.000Z</time>
      </trkpt>
      <trkpt lat="45.16531" lon="3.89809">
        <ele>594.08</ele>
        <time>2019-01-24T14:35:46.000Z</time>
      </trkpt>
      <trkpt lat="45.16535" lon="3.89819">
        <ele>599.28</ele>
        <time>2019-01-24T14:35:56.000Z</time>
      </trkpt>
      <trkpt lat="45.16536" lon="3.89832">
        <ele>597.09</ele>
        <time>2019-01-24T14:36:06.000Z</time>
      </trkpt>
      <trkpt lat="45.16544" lon="3.89844">
        <ele>598.67</ele>
        <time>2019-01-24T14:36:16.000Z</time>
      </trkpt>
      <trkpt lat="45.16551" lon="3.89857">
        <ele>605.31</ele>
        <time>2019-01-24T14:36:26.000Z</time>
      </trkpt>
      <trkpt lat="45.16551" lon="3.89872">
        <ele>601.9</ele>
        <time>2019-01-24T14:36:36.000Z</time>
      </trkpt>
      <trkpt lat="45.16557" lon="3.89881">
        <ele>603.06</ele>
        <time>2019-01-24T14:36:46.000Z</time>
      </trkpt>
      <trkpt lat="45.16559" lon="3.89895">
        <ele>603.47</ele>
        <time>2019-01-24T14:36:56.000Z</time>
      </trkpt>
      <trkpt lat="45.16563" lon="3.8991">
        <ele>604.3</ele>
        <time>2019-01-24T14:37:06.000Z</time>
      </trkpt>
      <trkpt lat="45.16566" lon="3.89924">
        <ele>603.38</ele>
        <time>2019-01-24T14:37:16.000Z</time>
      </trkpt>
      <trkpt lat="45.1657" lon="3.89936">
        <ele>601.4</ele>
        <time>2019-01-24T14:37:26.000Z</time>
      </trkpt>
      <trkpt lat="45.16574" lon="3.89952">
        <ele>600.95</ele>
        <time>2019-01-24T14:37:36.000Z</time>
      </trkpt>
      <trkpt lat="45.16576" lon="3.89968">
        <ele>597.51</ele>
        <time>2019-01-24T14:37:46.000Z</time>
      </trkpt>
      <trkpt lat="45.16578" lon="3.89979">
        <ele>594.03</ele>
        <time>2019-01-24T14:37:56.000Z</time>
      </trkpt>
      <trkpt lat="45.16578" lon="3.89993">
        <ele>593.32</ele>
        <time>2019-01-24T14:38:06.000Z</time>
      </trkpt>
      <trkpt lat="45.16578" lon="3.90002">
        <ele>592.46</ele>
        <time>2019-01-24T14:38:16.000Z</time>
      </trkpt>
      <trkpt lat="45.16574" lon="3.9001">
        <ele>588.46</ele>
        <time>2019-01-24T14:38:26.000Z</time>
      </trkpt>
      <trkpt lat="45.16574" lon="3.90021">
        <ele>587.94</ele>
        <time>2019-01-24T14:38:36.000Z</time>
      </trkpt>
      <trkpt lat="45.16581" lon="3.90029">
        <ele>588.13</ele>
        <time>2019-01-24T14:38:46.000Z</time>
      </trkpt>
      <trkpt lat="45.1659" lon="3.90038">
        <ele>588.43</ele>
        <time>2019-01-24T14:38:56.000Z</time>
      </trkpt>
      <trkpt lat="45.16595" lon="3.90048">
        <ele>588.81</ele>
        <time>2019-01-24T14:39:06.000Z</time>
      </trkpt>
      <trkpt lat="45.16594" lon="3.90058">
        <ele>592.55</ele>
        <time>2019-01-24T14:39:16.000Z</time>
      </trkpt>
      <trkpt lat="45.16592" lon="3.90071">
        <ele>588.74</ele>
        <time>2019-01-24T14:39:26.000Z</time>
      </trkpt>
      <trkpt lat="45.16592" lon="3.90082">
        <ele>588.56</ele>
        <time>2019-01-24T14:39:36.000Z</time>
      </trkpt>
      <trkpt lat="45.1659" lon="3.90097">
        <ele>586.64</ele>
        <time>2019-01-24T14:39:46.000Z</time>
      </trkpt>
      <trkpt lat="45.16588" lon="3.90112">
        <ele>584.42</ele>
        <time>2019-01-24T14:39:56.000Z</time>
      </trkpt>
      <trkpt lat="45.16588" lon="3.9013">
        <ele>583.57</ele>
        <time>2019-01-24T14:40:06.000Z</time>
      </trkpt>
      <trkpt lat="45.16583" lon="3.90146">
        <ele>580.63</ele>
        <time>2019-01-24T14:40:16.000Z</time>
      </trkpt>
      <trkpt lat="45.16581" lon="3.90162">
        <ele>586.41</ele>
        <time>2019-01-24T14:40:26.000Z</time>
      </trkpt>
      <trkpt lat="45.1658" lon="3.90174">
        <ele>583.51</ele>
        <time>2019-01-24T14:40:36.000Z</time>
      </trkpt>
      <trkpt lat="45.1658" lon="3.90187">
        <ele>590.86</ele>
        <time>2019-01-24T14:40:46.000Z</time>
      </trkpt>
      <trkpt lat="45.16576" lon="3.90201">
        <ele>592.99</ele>
        <time>2019-01-24T14:40:56.000Z</time>
      </trkpt>
      <trkpt lat="45.16575" lon="3.90215">
        <ele>598.3</ele>
        <time>2019-01-24T14:41:06.000Z</time>
      </trkpt>
      <trkpt lat="45.16572" lon="3.90229">
        <ele>595.46</ele>
        <time>2019-01-24T14:41:16.000Z</time>
      </trkpt>
      <trkpt lat="45.16569" lon="3.9024">
        <ele>596.19</ele>
        <time>2019-01-24T14:41:26.000Z</time>
      </trkpt>
      <trkpt lat="45.16566" lon="3.90252">
        <ele>592.9</ele>
        <time>2019-01-24T14:41:36.000Z</time>
      </trkpt>
      <trkpt lat="45.16565" lon="3.90265">
        <ele>588.97</ele>
        <time>2019-01-24T14:41:46.000Z</time>
      </trkpt>
      <trkpt lat="45.16564" lon="3.90279">
        <ele>588.23</ele>
        <time>2019-01-24T14:41:56.000Z</time>
      </trkpt>
      <trkpt lat="45.1656" lon="3.90294">
        <ele>582.5</ele>
        <time>2019-01-24T14:42:06.000Z</time>
      </trkpt>
      <trkpt lat="45.16557" lon="3.90307">
        <ele>581.33</ele>
        <time>2019-01-24T14:42:16.000Z</time>
      </trkpt>
      <trkpt lat="45.16555" lon="3.90322">
        <ele>584.56</ele>
        <time>2019-01-24T14:42:26.000Z</time>
      </trkpt>
      <trkpt lat="45.16552" lon="3.90337">
        <ele>586.16</ele>
        <time>2019-01-24T14:42:36.000Z</time>
      </trkpt>
      <trkpt lat="45.16549" lon="3.90354">
        <ele>592.87</ele>
        <time>2019-01-24T14:42:46.000Z</time>
      </trkpt>
      <trkpt lat="45.16547" lon="3.9037">
        <ele>591.44</ele>
        <time>2019-01-24T14:42:56.000Z</time>
      </trkpt>
      <trkpt lat="45.16544" lon="3.90386">
        <ele>590.73</ele>
        <time>2019-01-24T14:43:06.000Z</time>
      </trkpt>
      <trkpt lat="45.16538" lon="3.904">
        <ele>589.84</ele>
        <time>2019-01-24T14:43:16.000Z</time>
      </trkpt>
      <trkpt lat="45.16535" lon="3.90411">
        <ele>585.34</ele>
        <time>2019-01-24T14:43:26.000Z</time>
      </trkpt>
      <trkpt lat="45.16529" lon="3.90426">
        <ele>585.62</ele>
        <time>2019-01-24T14:43:36.000Z</time>
      </trkpt>
      <trkpt lat="45.16525" lon="3.90438">
        <ele>587.13</ele>
        <time>2019-01-24T14:43:46.000Z</time>
      </trkpt>
      <trkpt lat="45.1652" lon="3.90451">
        <ele>588.3</ele>
        <time>2019-01-24T14:43:56.000Z</time>
      </trkpt>
      <trkpt lat="45.16514" lon="3.90465">
        <ele>586.03</ele>
        <time>2019-01-24T14:44:06.000Z</time>
      </trkpt>
      <trkpt lat="45.16511" lon="3.90477">
        <ele>586.83</ele>
        <time>2019-01-24T14:44:16.000Z</time>
      </trkpt>
      <trkpt lat="45.16507" lon="3.90488">
        <ele>588.97</ele>
        <time>2019-01-24T14:44:26.000Z</time>
      </trkpt>
      <trkpt lat="45.16502" lon="3.90502">
        <ele>590.12</ele>
        <time>2019-01-24T14:44:36.000Z</time>
      </trkpt>
      <trkpt lat="45.16499" lon="3.90515">
        <ele>594.35</ele>
        <time>2019-01-24T14:44:46.000Z</time>
      </trkpt>
      <trkpt lat="45.16495" lon="3.9053">
        <ele>593.47</ele>
        <time>2019-01-24T14:44:56.000Z</time>
      </trkpt>
      <trkpt lat="45.16492" lon="3.90542">
        <ele>593.25</ele>
        <time>2019-01-24T14:45:06.000Z</time>
      </trkpt>
      <trkpt lat="45.16487" lon="3.90555">
        <ele>592.12</ele>
        <time>2019-01-24T14:45:16.000Z</time>
      </trkpt>
      <trkpt lat="45.16486" lon="3.90569">
        <ele>591.23</ele>
        <time>2019-01-24T14:45:26.000Z</time>
      </trkpt>
      <trkpt lat="45.1648" lon="3.90581">
        <ele>593.02</ele>
        <time>2019-01-24T14:45:36.000Z</time>
      </trkpt>
      <trkpt lat="45.16475" lon="3.90593">
        <ele>594.71</ele>
        <time>2019-01-24T14:45:46.000Z</time>
      </trkpt>
      <trkpt lat="45.16469" lon="3.90606">
        <ele>592.68</ele>
        <time>2019-01-24T14:45:56.000Z</time>
      </trkpt>
      <trkpt lat="45.16464" lon="3.90619">
        <ele>592.73</ele>
        <time>2019-01-24T14:46:06.000Z</time>
      </trkpt>
      <trkpt lat="45.1646" lon="3.90632">
        <ele>593.43</ele>
        <time>2019-01-24T14:46:16.000Z</time>
      </trkpt>
      <trkpt lat="45.16457" lon="3.90646">
        <ele>595.38</ele>
        <time>2019-01-24T14:46:26.000Z</time>
      </trkpt>
      <trkpt lat="45.16457" lon="3.90661">
        <ele>596.1</ele>
        <time>2019-01-24T14:46:36.000Z</time>
      </trkpt>
      <trkpt lat="45.16456" lon="3.90673">
        <ele>596.06</ele>
        <time>2019-01-24T14:46:46.000Z</time>
      </trkpt>
      <trkpt lat="45.16452" lon="3.90687">
        <ele>595.4</ele>
        <time>2019-01-24T14:46:56.000Z</time>
      </trkpt>
      <trkpt lat="45.16451" lon="3.90704">
        <ele>598</ele>
        <time>2019-01-24T14:47:06.000Z</time>
      </trkpt>
      <trkpt lat="45.16449" lon="3.90717">
        <ele>604.92</ele>
        <time>2019-01-24T14:47:16.000Z</time>
      </trkpt>
      <trkpt lat="45.16445" lon="3.90727">
        <ele>603.73</ele>
        <time>2019-01-24T14:47:26.000Z</time>
      </trkpt>
      <trkpt lat="45.16442" lon="3.90739">
        <ele>606.82</ele>
        <time>2019-01-24T14:47:36.000Z</time>
      </trkpt>
      <trkpt lat="45.16439" lon="3.90753">
        <ele>607.83</ele>
        <time>2019-01-24T14:47:46.000Z</time>
      </trkpt>
      <trkpt lat="45.16432" lon="3.90763">
        <ele>598.27</ele>
        <time>2019-01-24T14:47:56.000Z</time>
      </trkpt>
      <trkpt lat="45.16426" lon="3.90777">
        <ele>596.16</ele>
        <time>2019-01-24T14:48:06.000Z</time>
      </trkpt>
      <trkpt lat="45.16421" lon="3.90792">
        <ele>595.36</ele>
        <time>2019-01-24T14:48:16.000Z</time>
      </trkpt>
      <trkpt lat="45.16417" lon="3.90808">
        <ele>595.04</ele>
        <time>2019-01-24T14:48:26.000Z</time>
      </trkpt>
      <trkpt lat="45.16423" lon="3.90821">
        <ele>593.2</ele>
        <time>2019-01-24T14:48:36.000Z</time>
      </trkpt>
      <trkpt lat="45.16429" lon="3.90834">
        <ele>601.49</ele>
        <time>2019-01-24T14:48:46.000Z</time>
      </trkpt>
      <trkpt lat="45.16425" lon="3.90842">
        <ele>610.61</ele>
        <time>2019-01-24T14:48:56.000Z</time>
      </trkpt>
      <trkpt lat="45.16418" lon="3.90843">
        <ele>604.56</ele>
        <time>2019-01-24T14:49:06.000Z</time>
      </trkpt>
      <trkpt lat="45.16411" lon="3.90836">
        <ele>603.12</ele>
        <time>2019-01-24T14:49:16.000Z</time>
      </trkpt>
      <trkpt lat="45.16407" lon="3.90829">
        <ele>605.13</ele>
        <time>2019-01-24T14:49:26.000Z</time>
      </trkpt>
      <trkpt lat="45.16401" lon="3.90822">
        <ele>605.92</ele>
        <time>2019-01-24T14:49:36.000Z</time>
      </trkpt>
      <trkpt lat="45.16395" lon="3.90817">
        <ele>607.04</ele>
        <time>2019-01-24T14:49:46.000Z</time>
      </trkpt>
      <trkpt lat="45.16385" lon="3.90812">
        <ele>607.95</ele>
        <time>2019-01-24T14:49:56.000Z</time>
      </trkpt>
      <trkpt lat="45.16373" lon="3.90804">
        <ele>608.27</ele>
        <time>2019-01-24T14:50:06.000Z</time>
      </trkpt>
      <trkpt lat="45.16363" lon="3.908">
        <ele>609.04</ele>
        <time>2019-01-24T14:50:16.000Z</time>
      </trkpt>
      <trkpt lat="45.16353" lon="3.90798">
        <ele>609.66</ele>
        <time>2019-01-24T14:50:26.000Z</time>
      </trkpt>
      <trkpt lat="45.16344" lon="3.90796">
        <ele>610.25</ele>
        <time>2019-01-24T14:50:36.000Z</time>
      </trkpt>
      <trkpt lat="45.16336" lon="3.90796">
        <ele>611.51</ele>
        <time>2019-01-24T14:50:46.000Z</time>
      </trkpt>
      <trkpt lat="45.16329" lon="3.9079">
        <ele>615.35</ele>
        <time>2019-01-24T14:50:56.000Z</time>
      </trkpt>
      <trkpt lat="45.1632" lon="3.90789">
        <ele>613.64</ele>
        <time>2019-01-24T14:51:06.000Z</time>
      </trkpt>
      <trkpt lat="45.16312" lon="3.90788">
        <ele>610.61</ele>
        <time>2019-01-24T14:51:16.000Z</time>
      </trkpt>
      <trkpt lat="45.16304" lon="3.90785">
        <ele>610.34</ele>
        <time>2019-01-24T14:51:26.000Z</time>
      </trkpt>
      <trkpt lat="45.16296" lon="3.90781">
        <ele>611.86</ele>
        <time>2019-01-24T14:51:36.000Z</time>
      </trkpt>
      <trkpt lat="45.1629" lon="3.90778">
        <ele>607.8</ele>
        <time>2019-01-24T14:51:46.000Z</time>
      </trkpt>
      <trkpt lat="45.16286" lon="3.90777">
        <ele>610.46</ele>
        <time>2019-01-24T14:51:56.000Z</time>
      </trkpt>
      <trkpt lat="45.16278" lon="3.90775">
        <ele>608.67</ele>
        <time>2019-01-24T14:52:06.000Z</time>
      </trkpt>
      <trkpt lat="45.16271" lon="3.90777">
        <ele>606.47</ele>
        <time>2019-01-24T14:52:16.000Z</time>
      </trkpt>
      <trkpt lat="45.16261" lon="3.90776">
        <ele>603.53</ele>
        <time>2019-01-24T14:52:26.000Z</time>
      </trkpt>
      <trkpt lat="45.16251" lon="3.90773">
        <ele>604.31</ele>
        <time>2019-01-24T14:52:36.000Z</time>
      </trkpt>
      <trkpt lat="45.16242" lon="3.90766">
        <ele>612.2</ele>
        <time>2019-01-24T14:52:46.000Z</time>
      </trkpt>
      <trkpt lat="45.16233" lon="3.90763">
        <ele>611.85</ele>
        <time>2019-01-24T14:52:56.000Z</time>
      </trkpt>
      <trkpt lat="45.16222" lon="3.90758">
        <ele>607.88</ele>
        <time>2019-01-24T14:53:06.000Z</time>
      </trkpt>
      <trkpt lat="45.1621" lon="3.90754">
        <ele>606.41</ele>
        <time>2019-01-24T14:53:16.000Z</time>
      </trkpt>
      <trkpt lat="45.16202" lon="3.90752">
        <ele>607.02</ele>
        <time>2019-01-24T14:53:26.000Z</time>
      </trkpt>
      <trkpt lat="45.16193" lon="3.9075">
        <ele>604.96</ele>
        <time>2019-01-24T14:53:36.000Z</time>
      </trkpt>
      <trkpt lat="45.16182" lon="3.90745">
        <ele>604.23</ele>
        <time>2019-01-24T14:53:46.000Z</time>
      </trkpt>
      <trkpt lat="45.16172" lon="3.90743">
        <ele>602.09</ele>
        <time>2019-01-24T14:53:56.000Z</time>
      </trkpt>
      <trkpt lat="45.16164" lon="3.9074">
        <ele>603.67</ele>
        <time>2019-01-24T14:54:06.000Z</time>
      </trkpt>
      <trkpt lat="45.16155" lon="3.90737">
        <ele>602.53</ele>
        <time>2019-01-24T14:54:16.000Z</time>
      </trkpt>
      <trkpt lat="45.16145" lon="3.90735">
        <ele>602.61</ele>
        <time>2019-01-24T14:54:26.000Z</time>
      </trkpt>
      <trkpt lat="45.16135" lon="3.90734">
        <ele>603.4</ele>
        <time>2019-01-24T14:54:36.000Z</time>
      </trkpt>
      <trkpt lat="45.16123" lon="3.90736">
        <ele>604.98</ele>
        <time>2019-01-24T14:54:46.000Z</time>
      </trkpt>
      <trkpt lat="45.16113" lon="3.9074">
        <ele>604.3</ele>
        <time>2019-01-24T14:54:56.000Z</time>
      </trkpt>
      <trkpt lat="45.16105" lon="3.90742">
        <ele>604.83</ele>
        <time>2019-01-24T14:55:06.000Z</time>
      </trkpt>
      <trkpt lat="45.16094" lon="3.90742">
        <ele>606.67</ele>
        <time>2019-01-24T14:55:16.000Z</time>
      </trkpt>
      <trkpt lat="45.16085" lon="3.90742">
        <ele>603.9</ele>
        <time>2019-01-24T14:55:26.000Z</time>
      </trkpt>
      <trkpt lat="45.16076" lon="3.90745">
        <ele>601.45</ele>
        <time>2019-01-24T14:55:36.000Z</time>
      </trkpt>
      <trkpt lat="45.16066" lon="3.90746">
        <ele>598.23</ele>
        <time>2019-01-24T14:55:46.000Z</time>
      </trkpt>
      <trkpt lat="45.16058" lon="3.90747">
        <ele>592.16</ele>
        <time>2019-01-24T14:55:56.000Z</time>
      </trkpt>
      <trkpt lat="45.16046" lon="3.90749">
        <ele>589.19</ele>
        <time>2019-01-24T14:56:06.000Z</time>
      </trkpt>
      <trkpt lat="45.16035" lon="3.9075">
        <ele>589.39</ele>
        <time>2019-01-24T14:56:16.000Z</time>
      </trkpt>
      <trkpt lat="45.16024" lon="3.90752">
        <ele>587.22</ele>
        <time>2019-01-24T14:56:26.000Z</time>
      </trkpt>
      <trkpt lat="45.16014" lon="3.90754">
        <ele>585.16</ele>
        <time>2019-01-24T14:56:36.000Z</time>
      </trkpt>
      <trkpt lat="45.16006" lon="3.90754">
        <ele>586.19</ele>
        <time>2019-01-24T14:56:46.000Z</time>
      </trkpt>
      <trkpt lat="45.15996" lon="3.90756">
        <ele>590.15</ele>
        <time>2019-01-24T14:56:56.000Z</time>
      </trkpt>
      <trkpt lat="45.15986" lon="3.9076">
        <ele>586.63</ele>
        <time>2019-01-24T14:57:06.000Z</time>
      </trkpt>
      <trkpt lat="45.15975" lon="3.90765">
        <ele>585.62</ele>
        <time>2019-01-24T14:57:16.000Z</time>
      </trkpt>
      <trkpt lat="45.15964" lon="3.90771">
        <ele>578.11</ele>
        <time>2019-01-24T14:57:26.000Z</time>
      </trkpt>
      <trkpt lat="45.15952" lon="3.90781">
        <ele>579.23</ele>
        <time>2019-01-24T14:57:36.000Z</time>
      </trkpt>
      <trkpt lat="45.15943" lon="3.90788">
        <ele>584.35</ele>
        <time>2019-01-24T14:57:46.000Z</time>
      </trkpt>
      <trkpt lat="45.15935" lon="3.90793">
        <ele>586.65</ele>
        <time>2019-01-24T14:57:56.000Z</time>
      </trkpt>
      <trkpt lat="45.15927" lon="3.90799">
        <ele>586.53</ele>
        <time>2019-01-24T14:58:06.000Z</time>
      </trkpt>
      <trkpt lat="45.15919" lon="3.90806">
        <ele>587.04</ele>
        <time>2019-01-24T14:58:16.000Z</time>
      </trkpt>
      <trkpt lat="45.15907" lon="3.90812">
        <ele>581.12</ele>
        <time>2019-01-24T14:58:26.000Z</time>
      </trkpt>
      <trkpt lat="45.15901" lon="3.90814">
        <ele>576.26</ele>
        <time>2019-01-24T14:58:36.000Z</time>
      </trkpt>
      <trkpt lat="45.15897" lon="3.90814">
        <ele>577.02</ele>
        <time>2019-01-24T14:58:46.000Z</time>
      </trkpt>
      <trkpt lat="45.15892" lon="3.90813">
        <ele>580.6</ele>
        <time>2019-01-24T14:58:56.000Z</time>
      </trkpt>
      <trkpt lat="45.15895" lon="3.90813">
        <ele>579.78</ele>
        <time>2019-01-24T14:59:16.000Z</time>
      </trkpt>
      <trkpt lat="45.15896" lon="3.90814">
        <ele>576.8</ele>
        <time>2019-01-24T14:59:26.000Z</time>
      </trkpt>
      <trkpt lat="45.159" lon="3.90817">
        <ele>588.2</ele>
        <time>2019-01-24T15:00:03.000Z</time>
      </trkpt>
      <trkpt lat="45.15899" lon="3.90818">
        <ele>589.5</ele>
        <time>2019-01-24T15:00:13.000Z</time>
      </trkpt>
      <trkpt lat="45.15896" lon="3.9082">
        <ele>584.11</ele>
        <time>2019-01-24T15:00:23.000Z</time>
      </trkpt>
      <trkpt lat="45.15905" lon="3.9082">
        <ele>586.28</ele>
        <time>2019-01-24T15:00:54.000Z</time>
      </trkpt>
      <trkpt lat="45.15903" lon="3.90818">
        <ele>590.38</ele>
        <time>2019-01-24T15:03:02.000Z</time>
      </trkpt>
      <trkpt lat="45.159" lon="3.90819">
        <ele>595.8</ele>
        <time>2019-01-24T15:03:12.000Z</time>
      </trkpt>
      <trkpt lat="45.15898" lon="3.90817">
        <ele>592.96</ele>
        <time>2019-01-24T15:03:22.000Z</time>
      </trkpt>
      <trkpt lat="45.15902" lon="3.90818">
        <ele>585.72</ele>
        <time>2019-01-24T15:03:52.000Z</time>
      </trkpt>
      <trkpt lat="45.159" lon="3.9082">
        <ele>585.85</ele>
        <time>2019-01-24T15:05:03.000Z</time>
      </trkpt>
      <trkpt lat="45.15899" lon="3.90817">
        <ele>585.08</ele>
        <time>2019-01-24T15:05:33.000Z</time>
      </trkpt>
      <trkpt lat="45.15897" lon="3.90816">
        <ele>588.98</ele>
        <time>2019-01-24T15:06:03.000Z</time>
      </trkpt>
      <trkpt lat="45.15895" lon="3.90816">
        <ele>589.73</ele>
        <time>2019-01-24T15:06:13.000Z</time>
      </trkpt>
      <trkpt lat="45.15896" lon="3.90813">
        <ele>591.6</ele>
        <time>2019-01-24T15:06:23.000Z</time>
      </trkpt>
      <trkpt lat="45.15891" lon="3.90814">
        <ele>583.1</ele>
        <time>2019-01-24T15:06:33.000Z</time>
      </trkpt>
      <trkpt lat="45.15887" lon="3.90814">
        <ele>580.83</ele>
        <time>2019-01-24T15:06:43.000Z</time>
      </trkpt>
      <trkpt lat="45.15878" lon="3.90814">
        <ele>577.05</ele>
        <time>2019-01-24T15:06:53.000Z</time>
      </trkpt>
      <trkpt lat="45.15872" lon="3.90813">
        <ele>577.03</ele>
        <time>2019-01-24T15:07:03.000Z</time>
      </trkpt>
      <trkpt lat="45.15861" lon="3.90814">
        <ele>576.73</ele>
        <time>2019-01-24T15:07:13.000Z</time>
      </trkpt>
      <trkpt lat="45.15853" lon="3.90814">
        <ele>575.88</ele>
        <time>2019-01-24T15:07:23.000Z</time>
      </trkpt>
      <trkpt lat="45.15846" lon="3.90814">
        <ele>575.64</ele>
        <time>2019-01-24T15:07:33.000Z</time>
      </trkpt>
      <trkpt lat="45.15836" lon="3.90815">
        <ele>574.76</ele>
        <time>2019-01-24T15:07:43.000Z</time>
      </trkpt>
      <trkpt lat="45.15832" lon="3.9081">
        <ele>573.65</ele>
        <time>2019-01-24T15:07:53.000Z</time>
      </trkpt>
      <trkpt lat="45.15838" lon="3.90801">
        <ele>569.84</ele>
        <time>2019-01-24T15:08:03.000Z</time>
      </trkpt>
      <trkpt lat="45.15843" lon="3.90788">
        <ele>566.24</ele>
        <time>2019-01-24T15:08:13.000Z</time>
      </trkpt>
      <trkpt lat="45.15849" lon="3.90777">
        <ele>564.11</ele>
        <time>2019-01-24T15:08:23.000Z</time>
      </trkpt>
      <trkpt lat="45.15855" lon="3.90766">
        <ele>563.57</ele>
        <time>2019-01-24T15:08:33.000Z</time>
      </trkpt>
      <trkpt lat="45.15861" lon="3.90753">
        <ele>564.42</ele>
        <time>2019-01-24T15:08:43.000Z</time>
      </trkpt>
      <trkpt lat="45.15867" lon="3.9074">
        <ele>568.61</ele>
        <time>2019-01-24T15:08:53.000Z</time>
      </trkpt>
      <trkpt lat="45.15872" lon="3.90724">
        <ele>564.93</ele>
        <time>2019-01-24T15:09:03.000Z</time>
      </trkpt>
      <trkpt lat="45.15876" lon="3.90708">
        <ele>566.32</ele>
        <time>2019-01-24T15:09:13.000Z</time>
      </trkpt>
      <trkpt lat="45.15877" lon="3.90694">
        <ele>569.12</ele>
        <time>2019-01-24T15:09:23.000Z</time>
      </trkpt>
      <trkpt lat="45.15878" lon="3.90681">
        <ele>570.76</ele>
        <time>2019-01-24T15:09:33.000Z</time>
      </trkpt>
      <trkpt lat="45.15877" lon="3.90668">
        <ele>570.83</ele>
        <time>2019-01-24T15:09:43.000Z</time>
      </trkpt>
      <trkpt lat="45.15874" lon="3.9065">
        <ele>573.23</ele>
        <time>2019-01-24T15:09:53.000Z</time>
      </trkpt>
      <trkpt lat="45.15872" lon="3.90633">
        <ele>573.55</ele>
        <time>2019-01-24T15:10:03.000Z</time>
      </trkpt>
      <trkpt lat="45.15872" lon="3.90619">
        <ele>573.05</ele>
        <time>2019-01-24T15:10:13.000Z</time>
      </trkpt>
      <trkpt lat="45.15871" lon="3.90606">
        <ele>573.14</ele>
        <time>2019-01-24T15:10:23.000Z</time>
      </trkpt>
      <trkpt lat="45.15868" lon="3.90594">
        <ele>569.4</ele>
        <time>2019-01-24T15:10:33.000Z</time>
      </trkpt>
      <trkpt lat="45.15868" lon="3.9058">
        <ele>565.51</ele>
        <time>2019-01-24T15:10:43.000Z</time>
      </trkpt>
      <trkpt lat="45.15867" lon="3.90563">
        <ele>570.02</ele>
        <time>2019-01-24T15:10:53.000Z</time>
      </trkpt>
      <trkpt lat="45.15865" lon="3.9055">
        <ele>568.25</ele>
        <time>2019-01-24T15:11:03.000Z</time>
      </trkpt>
      <trkpt lat="45.15866" lon="3.9054">
        <ele>565.63</ele>
        <time>2019-01-24T15:11:13.000Z</time>
      </trkpt>
      <trkpt lat="45.15865" lon="3.90525">
        <ele>569.08</ele>
        <time>2019-01-24T15:11:23.000Z</time>
      </trkpt>
      <trkpt lat="45.15867" lon="3.90512">
        <ele>572.58</ele>
        <time>2019-01-24T15:11:33.000Z</time>
      </trkpt>
      <trkpt lat="45.15865" lon="3.905">
        <ele>572.91</ele>
        <time>2019-01-24T15:11:43.000Z</time>
      </trkpt>
      <trkpt lat="45.15871" lon="3.90486">
        <ele>575.41</ele>
        <time>2019-01-24T15:11:53.000Z</time>
      </trkpt>
      <trkpt lat="45.15879" lon="3.90473">
        <ele>577.41</ele>
        <time>2019-01-24T15:12:03.000Z</time>
      </trkpt>
      <trkpt lat="45.15887" lon="3.90463">
        <ele>576.88</ele>
        <time>2019-01-24T15:12:13.000Z</time>
      </trkpt>
      <trkpt lat="45.15894" lon="3.90451">
        <ele>572.67</ele>
        <time>2019-01-24T15:12:23.000Z</time>
      </trkpt>
      <trkpt lat="45.15902" lon="3.9044">
        <ele>568.33</ele>
        <time>2019-01-24T15:12:33.000Z</time>
      </trkpt>
      <trkpt lat="45.1591" lon="3.90429">
        <ele>567.23</ele>
        <time>2019-01-24T15:12:43.000Z</time>
      </trkpt>
      <trkpt lat="45.15918" lon="3.90415">
        <ele>566.5</ele>
        <time>2019-01-24T15:12:53.000Z</time>
      </trkpt>
      <trkpt lat="45.15923" lon="3.90402">
        <ele>567.87</ele>
        <time>2019-01-24T15:13:03.000Z</time>
      </trkpt>
      <trkpt lat="45.15932" lon="3.90391">
        <ele>568.86</ele>
        <time>2019-01-24T15:13:13.000Z</time>
      </trkpt>
      <trkpt lat="45.15942" lon="3.90381">
        <ele>571.46</ele>
        <time>2019-01-24T15:13:23.000Z</time>
      </trkpt>
      <trkpt lat="45.15948" lon="3.90367">
        <ele>573.7</ele>
        <time>2019-01-24T15:13:33.000Z</time>
      </trkpt>
      <trkpt lat="45.15954" lon="3.90359">
        <ele>578.82</ele>
        <time>2019-01-24T15:13:43.000Z</time>
      </trkpt>
      <trkpt lat="45.15948" lon="3.90356">
        <ele>582.25</ele>
        <time>2019-01-24T15:13:53.000Z</time>
      </trkpt>
      <trkpt lat="45.15944" lon="3.90357">
        <ele>580.65</ele>
        <time>2019-01-24T15:14:03.000Z</time>
      </trkpt>
      <trkpt lat="45.15938" lon="3.90358">
        <ele>579.27</ele>
        <time>2019-01-24T15:14:13.000Z</time>
      </trkpt>
      <trkpt lat="45.15929" lon="3.90359">
        <ele>577.19</ele>
        <time>2019-01-24T15:14:23.000Z</time>
      </trkpt>
      <trkpt lat="45.15919" lon="3.90362">
        <ele>576.4</ele>
        <time>2019-01-24T15:14:33.000Z</time>
      </trkpt>
      <trkpt lat="45.15907" lon="3.90365">
        <ele>576</ele>
        <time>2019-01-24T15:14:43.000Z</time>
      </trkpt>
      <trkpt lat="45.15897" lon="3.90367">
        <ele>573.47</ele>
        <time>2019-01-24T15:14:53.000Z</time>
      </trkpt>
      <trkpt lat="45.15887" lon="3.90372">
        <ele>575.68</ele>
        <time>2019-01-24T15:15:03.000Z</time>
      </trkpt>
      <trkpt lat="45.15876" lon="3.90376">
        <ele>578.15</ele>
        <time>2019-01-24T15:15:13.000Z</time>
      </trkpt>
      <trkpt lat="45.15865" lon="3.90377">
        <ele>579.24</ele>
        <time>2019-01-24T15:15:23.000Z</time>
      </trkpt>
      <trkpt lat="45.15857" lon="3.90377">
        <ele>580.17</ele>
        <time>2019-01-24T15:15:33.000Z</time>
      </trkpt>
      <trkpt lat="45.15846" lon="3.90377">
        <ele>580.59</ele>
        <time>2019-01-24T15:15:43.000Z</time>
      </trkpt>
      <trkpt lat="45.15832" lon="3.9038">
        <ele>581.9</ele>
        <time>2019-01-24T15:15:53.000Z</time>
      </trkpt>
      <trkpt lat="45.15822" lon="3.90377">
        <ele>584.82</ele>
        <time>2019-01-24T15:16:03.000Z</time>
      </trkpt>
      <trkpt lat="45.15814" lon="3.90377">
        <ele>588.06</ele>
        <time>2019-01-24T15:16:13.000Z</time>
      </trkpt>
      <trkpt lat="45.15805" lon="3.90376">
        <ele>587.85</ele>
        <time>2019-01-24T15:16:23.000Z</time>
      </trkpt>
      <trkpt lat="45.15793" lon="3.90376">
        <ele>589.36</ele>
        <time>2019-01-24T15:16:33.000Z</time>
      </trkpt>
      <trkpt lat="45.15781" lon="3.90377">
        <ele>587.06</ele>
        <time>2019-01-24T15:16:43.000Z</time>
      </trkpt>
      <trkpt lat="45.15771" lon="3.90378">
        <ele>586.8</ele>
        <time>2019-01-24T15:16:53.000Z</time>
      </trkpt>
      <trkpt lat="45.15761" lon="3.90377">
        <ele>588.46</ele>
        <time>2019-01-24T15:17:03.000Z</time>
      </trkpt>
      <trkpt lat="45.15751" lon="3.90377">
        <ele>586.2</ele>
        <time>2019-01-24T15:17:13.000Z</time>
      </trkpt>
      <trkpt lat="45.1574" lon="3.90376">
        <ele>584.14</ele>
        <time>2019-01-24T15:17:23.000Z</time>
      </trkpt>
      <trkpt lat="45.1573" lon="3.90374">
        <ele>583.79</ele>
        <time>2019-01-24T15:17:33.000Z</time>
      </trkpt>
      <trkpt lat="45.15719" lon="3.9037">
        <ele>584.24</ele>
        <time>2019-01-24T15:17:43.000Z</time>
      </trkpt>
      <trkpt lat="45.15707" lon="3.9037">
        <ele>585.13</ele>
        <time>2019-01-24T15:17:53.000Z</time>
      </trkpt>
      <trkpt lat="45.15698" lon="3.90368">
        <ele>588.67</ele>
        <time>2019-01-24T15:18:03.000Z</time>
      </trkpt>
      <trkpt lat="45.15689" lon="3.90367">
        <ele>586.94</ele>
        <time>2019-01-24T15:18:13.000Z</time>
      </trkpt>
      <trkpt lat="45.15678" lon="3.90369">
        <ele>585.15</ele>
        <time>2019-01-24T15:18:23.000Z</time>
      </trkpt>
      <trkpt lat="45.15667" lon="3.90371">
        <ele>588.37</ele>
        <time>2019-01-24T15:18:33.000Z</time>
      </trkpt>
      <trkpt lat="45.15655" lon="3.90374">
        <ele>590.09</ele>
        <time>2019-01-24T15:18:43.000Z</time>
      </trkpt>
      <trkpt lat="45.15643" lon="3.90375">
        <ele>586.53</ele>
        <time>2019-01-24T15:18:53.000Z</time>
      </trkpt>
      <trkpt lat="45.15633" lon="3.90376">
        <ele>582.95</ele>
        <time>2019-01-24T15:19:03.000Z</time>
      </trkpt>
      <trkpt lat="45.15624" lon="3.9038">
        <ele>583.55</ele>
        <time>2019-01-24T15:19:13.000Z</time>
      </trkpt>
      <trkpt lat="45.15612" lon="3.90385">
        <ele>585.7</ele>
        <time>2019-01-24T15:19:23.000Z</time>
      </trkpt>
      <trkpt lat="45.156" lon="3.90387">
        <ele>586.38</ele>
        <time>2019-01-24T15:19:33.000Z</time>
      </trkpt>
      <trkpt lat="45.15588" lon="3.90391">
        <ele>585.3</ele>
        <time>2019-01-24T15:19:43.000Z</time>
      </trkpt>
      <trkpt lat="45.15579" lon="3.90395">
        <ele>585.82</ele>
        <time>2019-01-24T15:19:53.000Z</time>
      </trkpt>
      <trkpt lat="45.15568" lon="3.90397">
        <ele>587.24</ele>
        <time>2019-01-24T15:20:03.000Z</time>
      </trkpt>
      <trkpt lat="45.15555" lon="3.90402">
        <ele>586.12</ele>
        <time>2019-01-24T15:20:13.000Z</time>
      </trkpt>
      <trkpt lat="45.15545" lon="3.90406">
        <ele>585.67</ele>
        <time>2019-01-24T15:20:23.000Z</time>
      </trkpt>
      <trkpt lat="45.15535" lon="3.90408">
        <ele>583.65</ele>
        <time>2019-01-24T15:20:33.000Z</time>
      </trkpt>
      <trkpt lat="45.15524" lon="3.9041">
        <ele>582.47</ele>
        <time>2019-01-24T15:20:43.000Z</time>
      </trkpt>
      <trkpt lat="45.15515" lon="3.90413">
        <ele>581.57</ele>
        <time>2019-01-24T15:20:53.000Z</time>
      </trkpt>
      <trkpt lat="45.15504" lon="3.90414">
        <ele>581.36</ele>
        <time>2019-01-24T15:21:03.000Z</time>
      </trkpt>
      <trkpt lat="45.15496" lon="3.90415">
        <ele>577.78</ele>
        <time>2019-01-24T15:21:13.000Z</time>
      </trkpt>
      <trkpt lat="45.15486" lon="3.90413">
        <ele>577.23</ele>
        <time>2019-01-24T15:21:23.000Z</time>
      </trkpt>
      <trkpt lat="45.15477" lon="3.90409">
        <ele>576.73</ele>
        <time>2019-01-24T15:21:33.000Z</time>
      </trkpt>
      <trkpt lat="45.15469" lon="3.90404">
        <ele>579.3</ele>
        <time>2019-01-24T15:21:43.000Z</time>
      </trkpt>
      <trkpt lat="45.15459" lon="3.90399">
        <ele>578.32</ele>
        <time>2019-01-24T15:21:53.000Z</time>
      </trkpt>
      <trkpt lat="45.15449" lon="3.90393">
        <ele>576.59</ele>
        <time>2019-01-24T15:22:03.000Z</time>
      </trkpt>
      <trkpt lat="45.15441" lon="3.90393">
        <ele>578.77</ele>
        <time>2019-01-24T15:22:13.000Z</time>
      </trkpt>
      <trkpt lat="45.15434" lon="3.90393">
        <ele>583.13</ele>
        <time>2019-01-24T15:22:23.000Z</time>
      </trkpt>
      <trkpt lat="45.15428" lon="3.90392">
        <ele>584.6</ele>
        <time>2019-01-24T15:22:33.000Z</time>
      </trkpt>
      <trkpt lat="45.15418" lon="3.90394">
        <ele>581.6</ele>
        <time>2019-01-24T15:22:43.000Z</time>
      </trkpt>
      <trkpt lat="45.15408" lon="3.90392">
        <ele>581.13</ele>
        <time>2019-01-24T15:22:53.000Z</time>
      </trkpt>
      <trkpt lat="45.15396" lon="3.90393">
        <ele>580.98</ele>
        <time>2019-01-24T15:23:03.000Z</time>
      </trkpt>
      <trkpt lat="45.15384" lon="3.90393">
        <ele>578.8</ele>
        <time>2019-01-24T15:23:13.000Z</time>
      </trkpt>
      <trkpt lat="45.15374" lon="3.90397">
        <ele>574.13</ele>
        <time>2019-01-24T15:23:23.000Z</time>
      </trkpt>
      <trkpt lat="45.15363" lon="3.90402">
        <ele>572.39</ele>
        <time>2019-01-24T15:23:33.000Z</time>
      </trkpt>
      <trkpt lat="45.15351" lon="3.904">
        <ele>571.27</ele>
        <time>2019-01-24T15:23:43.000Z</time>
      </trkpt>
      <trkpt lat="45.15338" lon="3.90398">
        <ele>572.1</ele>
        <time>2019-01-24T15:23:53.000Z</time>
      </trkpt>
      <trkpt lat="45.15332" lon="3.90397">
        <ele>573.55</ele>
        <time>2019-01-24T15:24:03.000Z</time>
      </trkpt>
      <trkpt lat="45.15325" lon="3.90392">
        <ele>576.8</ele>
        <time>2019-01-24T15:24:13.000Z</time>
      </trkpt>
      <trkpt lat="45.15316" lon="3.90392">
        <ele>576.98</ele>
        <time>2019-01-24T15:24:23.000Z</time>
      </trkpt>
      <trkpt lat="45.153" lon="3.90395">
        <ele>573.02</ele>
        <time>2019-01-24T15:24:33.000Z</time>
      </trkpt>
      <trkpt lat="45.15299" lon="3.90395">
        <ele>572.63</ele>
        <time>2019-01-24T15:24:45.000Z</time>
      </trkpt>
      <trkpt lat="45.15293" lon="3.90397">
        <ele>575.5</ele>
        <time>2019-01-24T15:24:55.000Z</time>
      </trkpt>
      <trkpt lat="45.15286" lon="3.904">
        <ele>573.97</ele>
        <time>2019-01-24T15:25:05.000Z</time>
      </trkpt>
      <trkpt lat="45.15279" lon="3.90404">
        <ele>574.91</ele>
        <time>2019-01-24T15:25:15.000Z</time>
      </trkpt>
      <trkpt lat="45.15271" lon="3.90409">
        <ele>575.24</ele>
        <time>2019-01-24T15:25:25.000Z</time>
      </trkpt>
      <trkpt lat="45.1526" lon="3.90415">
        <ele>578.25</ele>
        <time>2019-01-24T15:25:35.000Z</time>
      </trkpt>
      <trkpt lat="45.15252" lon="3.90418">
        <ele>577.5</ele>
        <time>2019-01-24T15:25:45.000Z</time>
      </trkpt>
      <trkpt lat="45.15244" lon="3.90423">
        <ele>572.36</ele>
        <time>2019-01-24T15:25:55.000Z</time>
      </trkpt>
      <trkpt lat="45.15233" lon="3.9043">
        <ele>571.67</ele>
        <time>2019-01-24T15:26:05.000Z</time>
      </trkpt>
      <trkpt lat="45.15226" lon="3.9043">
        <ele>566.23</ele>
        <time>2019-01-24T15:26:15.000Z</time>
      </trkpt>
      <trkpt lat="45.15214" lon="3.90439">
        <ele>567.32</ele>
        <time>2019-01-24T15:26:25.000Z</time>
      </trkpt>
      <trkpt lat="45.15207" lon="3.90445">
        <ele>574.8</ele>
        <time>2019-01-24T15:26:35.000Z</time>
      </trkpt>
      <trkpt lat="45.15207" lon="3.90442">
        <ele>577.27</ele>
        <time>2019-01-24T15:26:49.000Z</time>
      </trkpt>
      <trkpt lat="45.15202" lon="3.90438">
        <ele>582.14</ele>
        <time>2019-01-24T15:26:59.000Z</time>
      </trkpt>
      <trkpt lat="45.15193" lon="3.90438">
        <ele>585.52</ele>
        <time>2019-01-24T15:27:09.000Z</time>
      </trkpt>
      <trkpt lat="45.15184" lon="3.90435">
        <ele>578.79</ele>
        <time>2019-01-24T15:27:19.000Z</time>
      </trkpt>
      <trkpt lat="45.15175" lon="3.90435">
        <ele>580.05</ele>
        <time>2019-01-24T15:27:29.000Z</time>
      </trkpt>
      <trkpt lat="45.15168" lon="3.90434">
        <ele>583.38</ele>
        <time>2019-01-24T15:27:39.000Z</time>
      </trkpt>
      <trkpt lat="45.15157" lon="3.90435">
        <ele>584.79</ele>
        <time>2019-01-24T15:27:49.000Z</time>
      </trkpt>
      <trkpt lat="45.15148" lon="3.90441">
        <ele>585.83</ele>
        <time>2019-01-24T15:27:59.000Z</time>
      </trkpt>
      <trkpt lat="45.15141" lon="3.90442">
        <ele>588.14</ele>
        <time>2019-01-24T15:28:09.000Z</time>
      </trkpt>
      <trkpt lat="45.15135" lon="3.90445">
        <ele>588.69</ele>
        <time>2019-01-24T15:28:19.000Z</time>
      </trkpt>
      <trkpt lat="45.15127" lon="3.9045">
        <ele>584.59</ele>
        <time>2019-01-24T15:28:29.000Z</time>
      </trkpt>
      <trkpt lat="45.15121" lon="3.90462">
        <ele>581.58</ele>
        <time>2019-01-24T15:28:39.000Z</time>
      </trkpt>
      <trkpt lat="45.15107" lon="3.90458">
        <ele>578.91</ele>
        <time>2019-01-24T15:28:49.000Z</time>
      </trkpt>
      <trkpt lat="45.15101" lon="3.90461">
        <ele>585.09</ele>
        <time>2019-01-24T15:28:59.000Z</time>
      </trkpt>
      <trkpt lat="45.15093" lon="3.90463">
        <ele>574.65</ele>
        <time>2019-01-24T15:29:09.000Z</time>
      </trkpt>
      <trkpt lat="45.15082" lon="3.90477">
        <ele>573.71</ele>
        <time>2019-01-24T15:29:19.000Z</time>
      </trkpt>
      <trkpt lat="45.15077" lon="3.90479">
        <ele>559.37</ele>
        <time>2019-01-24T15:29:29.000Z</time>
      </trkpt>
      <trkpt lat="45.15071" lon="3.90491">
        <ele>558.87</ele>
        <time>2019-01-24T15:29:39.000Z</time>
      </trkpt>
      <trkpt lat="45.15053" lon="3.90504">
        <ele>582.32</ele>
        <time>2019-01-24T15:29:49.000Z</time>
      </trkpt>
      <trkpt lat="45.15043" lon="3.90511">
        <ele>582.48</ele>
        <time>2019-01-24T15:29:59.000Z</time>
      </trkpt>
      <trkpt lat="45.15039" lon="3.90516">
        <ele>577.46</ele>
        <time>2019-01-24T15:30:09.000Z</time>
      </trkpt>
      <trkpt lat="45.15035" lon="3.90517">
        <ele>571.23</ele>
        <time>2019-01-24T15:30:19.000Z</time>
      </trkpt>
      <trkpt lat="45.15029" lon="3.90526">
        <ele>564.13</ele>
        <time>2019-01-24T15:30:29.000Z</time>
      </trkpt>
      <trkpt lat="45.1502" lon="3.9053">
        <ele>570.18</ele>
        <time>2019-01-24T15:30:39.000Z</time>
      </trkpt>
      <trkpt lat="45.15008" lon="3.90538">
        <ele>583.19</ele>
        <time>2019-01-24T15:30:49.000Z</time>
      </trkpt>
      <trkpt lat="45.14996" lon="3.90541">
        <ele>586.51</ele>
        <time>2019-01-24T15:30:59.000Z</time>
      </trkpt>
      <trkpt lat="45.14987" lon="3.90541">
        <ele>583.52</ele>
        <time>2019-01-24T15:31:09.000Z</time>
      </trkpt>
      <trkpt lat="45.1498" lon="3.90541">
        <ele>585.96</ele>
        <time>2019-01-24T15:31:19.000Z</time>
      </trkpt>
      <trkpt lat="45.1497" lon="3.90543">
        <ele>588.06</ele>
        <time>2019-01-24T15:31:29.000Z</time>
      </trkpt>
      <trkpt lat="45.14958" lon="3.90543">
        <ele>587.8</ele>
        <time>2019-01-24T15:31:39.000Z</time>
      </trkpt>
      <trkpt lat="45.14949" lon="3.90546">
        <ele>589.36</ele>
        <time>2019-01-24T15:31:49.000Z</time>
      </trkpt>
      <trkpt lat="45.14938" lon="3.9055">
        <ele>588.8</ele>
        <time>2019-01-24T15:31:59.000Z</time>
      </trkpt>
      <trkpt lat="45.14925" lon="3.90551">
        <ele>591.65</ele>
        <time>2019-01-24T15:32:09.000Z</time>
      </trkpt>
      <trkpt lat="45.14916" lon="3.90549">
        <ele>594.07</ele>
        <time>2019-01-24T15:32:19.000Z</time>
      </trkpt>
      <trkpt lat="45.14908" lon="3.90549">
        <ele>593.45</ele>
        <time>2019-01-24T15:32:29.000Z</time>
      </trkpt>
      <trkpt lat="45.14896" lon="3.90551">
        <ele>592.17</ele>
        <time>2019-01-24T15:32:39.000Z</time>
      </trkpt>
      <trkpt lat="45.14888" lon="3.90549">
        <ele>595.69</ele>
        <time>2019-01-24T15:32:49.000Z</time>
      </trkpt>
      <trkpt lat="45.14879" lon="3.90544">
        <ele>601.6</ele>
        <time>2019-01-24T15:32:59.000Z</time>
      </trkpt>
      <trkpt lat="45.14871" lon="3.90542">
        <ele>604.8</ele>
        <time>2019-01-24T15:33:09.000Z</time>
      </trkpt>
      <trkpt lat="45.14859" lon="3.90544">
        <ele>605.11</ele>
        <time>2019-01-24T15:33:19.000Z</time>
      </trkpt>
      <trkpt lat="45.14852" lon="3.90543">
        <ele>604.01</ele>
        <time>2019-01-24T15:33:29.000Z</time>
      </trkpt>
      <trkpt lat="45.14844" lon="3.90545">
        <ele>603.65</ele>
        <time>2019-01-24T15:33:39.000Z</time>
      </trkpt>
      <trkpt lat="45.14835" lon="3.90548">
        <ele>603.08</ele>
        <time>2019-01-24T15:33:49.000Z</time>
      </trkpt>
      <trkpt lat="45.14825" lon="3.90551">
        <ele>606.13</ele>
        <time>2019-01-24T15:33:59.000Z</time>
      </trkpt>
      <trkpt lat="45.14815" lon="3.90556">
        <ele>606.9</ele>
        <time>2019-01-24T15:34:09.000Z</time>
      </trkpt>
      <trkpt lat="45.14803" lon="3.90559">
        <ele>607.06</ele>
        <time>2019-01-24T15:34:19.000Z</time>
      </trkpt>
      <trkpt lat="45.14793" lon="3.90563">
        <ele>605.83</ele>
        <time>2019-01-24T15:34:29.000Z</time>
      </trkpt>
      <trkpt lat="45.14782" lon="3.90566">
        <ele>604</ele>
        <time>2019-01-24T15:34:39.000Z</time>
      </trkpt>
      <trkpt lat="45.14771" lon="3.9057">
        <ele>606.57</ele>
        <time>2019-01-24T15:34:49.000Z</time>
      </trkpt>
      <trkpt lat="45.14763" lon="3.90573">
        <ele>608.8</ele>
        <time>2019-01-24T15:34:59.000Z</time>
      </trkpt>
      <trkpt lat="45.14754" lon="3.90575">
        <ele>607.19</ele>
        <time>2019-01-24T15:35:09.000Z</time>
      </trkpt>
      <trkpt lat="45.14744" lon="3.90577">
        <ele>609.52</ele>
        <time>2019-01-24T15:35:19.000Z</time>
      </trkpt>
      <trkpt lat="45.14736" lon="3.9058">
        <ele>610.43</ele>
        <time>2019-01-24T15:35:29.000Z</time>
      </trkpt>
      <trkpt lat="45.14727" lon="3.90583">
        <ele>611.33</ele>
        <time>2019-01-24T15:35:39.000Z</time>
      </trkpt>
      <trkpt lat="45.14717" lon="3.90588">
        <ele>608.15</ele>
        <time>2019-01-24T15:35:49.000Z</time>
      </trkpt>
      <trkpt lat="45.14705" lon="3.90592">
        <ele>610.37</ele>
        <time>2019-01-24T15:35:59.000Z</time>
      </trkpt>
      <trkpt lat="45.14695" lon="3.90596">
        <ele>609.86</ele>
        <time>2019-01-24T15:36:09.000Z</time>
      </trkpt>
      <trkpt lat="45.14685" lon="3.90598">
        <ele>609.78</ele>
        <time>2019-01-24T15:36:19.000Z</time>
      </trkpt>
      <trkpt lat="45.14674" lon="3.90602">
        <ele>607.99</ele>
        <time>2019-01-24T15:36:29.000Z</time>
      </trkpt>
      <trkpt lat="45.14664" lon="3.90608">
        <ele>605.79</ele>
        <time>2019-01-24T15:36:39.000Z</time>
      </trkpt>
      <trkpt lat="45.14652" lon="3.90616">
        <ele>607.19</ele>
        <time>2019-01-24T15:36:49.000Z</time>
      </trkpt>
      <trkpt lat="45.14643" lon="3.90626">
        <ele>608.06</ele>
        <time>2019-01-24T15:36:59.000Z</time>
      </trkpt>
      <trkpt lat="45.14634" lon="3.90634">
        <ele>605.26</ele>
        <time>2019-01-24T15:37:09.000Z</time>
      </trkpt>
      <trkpt lat="45.14626" lon="3.90642">
        <ele>603.67</ele>
        <time>2019-01-24T15:37:19.000Z</time>
      </trkpt>
      <trkpt lat="45.14618" lon="3.90652">
        <ele>604.18</ele>
        <time>2019-01-24T15:37:29.000Z</time>
      </trkpt>
      <trkpt lat="45.14609" lon="3.90663">
        <ele>600.13</ele>
        <time>2019-01-24T15:37:39.000Z</time>
      </trkpt>
      <trkpt lat="45.146" lon="3.90675">
        <ele>595.81</ele>
        <time>2019-01-24T15:37:49.000Z</time>
      </trkpt>
      <trkpt lat="45.14593" lon="3.90687">
        <ele>596.38</ele>
        <time>2019-01-24T15:37:59.000Z</time>
      </trkpt>
      <trkpt lat="45.14585" lon="3.90697">
        <ele>592.41</ele>
        <time>2019-01-24T15:38:09.000Z</time>
      </trkpt>
      <trkpt lat="45.14579" lon="3.90703">
        <ele>579.53</ele>
        <time>2019-01-24T15:38:19.000Z</time>
      </trkpt>
      <trkpt lat="45.14571" lon="3.90712">
        <ele>584.22</ele>
        <time>2019-01-24T15:38:29.000Z</time>
      </trkpt>
      <trkpt lat="45.14562" lon="3.90722">
        <ele>587.15</ele>
        <time>2019-01-24T15:38:39.000Z</time>
      </trkpt>
      <trkpt lat="45.14553" lon="3.90735">
        <ele>589.49</ele>
        <time>2019-01-24T15:38:49.000Z</time>
      </trkpt>
      <trkpt lat="45.14542" lon="3.9075">
        <ele>587.42</ele>
        <time>2019-01-24T15:38:59.000Z</time>
      </trkpt>
      <trkpt lat="45.14533" lon="3.9076">
        <ele>588.9</ele>
        <time>2019-01-24T15:39:09.000Z</time>
      </trkpt>
      <trkpt lat="45.14525" lon="3.90769">
        <ele>592.65</ele>
        <time>2019-01-24T15:39:19.000Z</time>
      </trkpt>
      <trkpt lat="45.14517" lon="3.90775">
        <ele>591.7</ele>
        <time>2019-01-24T15:39:29.000Z</time>
      </trkpt>
      <trkpt lat="45.14511" lon="3.90784">
        <ele>589.56</ele>
        <time>2019-01-24T15:39:39.000Z</time>
      </trkpt>
      <trkpt lat="45.145" lon="3.90791">
        <ele>586.49</ele>
        <time>2019-01-24T15:39:49.000Z</time>
      </trkpt>
      <trkpt lat="45.14492" lon="3.90798">
        <ele>582.45</ele>
        <time>2019-01-24T15:39:59.000Z</time>
      </trkpt>
      <trkpt lat="45.14479" lon="3.90812">
        <ele>579.58</ele>
        <time>2019-01-24T15:40:09.000Z</time>
      </trkpt>
      <trkpt lat="45.14468" lon="3.90821">
        <ele>588.09</ele>
        <time>2019-01-24T15:40:19.000Z</time>
      </trkpt>
      <trkpt lat="45.14461" lon="3.9082">
        <ele>586.18</ele>
        <time>2019-01-24T15:40:29.000Z</time>
      </trkpt>
      <trkpt lat="45.14455" lon="3.90828">
        <ele>597.77</ele>
        <time>2019-01-24T15:40:39.000Z</time>
      </trkpt>
      <trkpt lat="45.14449" lon="3.90837">
        <ele>595.63</ele>
        <time>2019-01-24T15:40:49.000Z</time>
      </trkpt>
      <trkpt lat="45.14435" lon="3.90833">
        <ele>601.03</ele>
        <time>2019-01-24T15:40:59.000Z</time>
      </trkpt>
      <trkpt lat="45.14428" lon="3.90832">
        <ele>599.95</ele>
        <time>2019-01-24T15:41:09.000Z</time>
      </trkpt>
      <trkpt lat="45.14411" lon="3.90831">
        <ele>599.57</ele>
        <time>2019-01-24T15:41:19.000Z</time>
      </trkpt>
      <trkpt lat="45.14399" lon="3.90837">
        <ele>590.42</ele>
        <time>2019-01-24T15:41:29.000Z</time>
      </trkpt>
      <trkpt lat="45.14387" lon="3.90838">
        <ele>594.71</ele>
        <time>2019-01-24T15:41:39.000Z</time>
      </trkpt>
      <trkpt lat="45.14385" lon="3.9084">
        <ele>600.39</ele>
        <time>2019-01-24T15:41:49.000Z</time>
      </trkpt>
      <trkpt lat="45.14383" lon="3.9083">
        <ele>601.43</ele>
        <time>2019-01-24T15:41:59.000Z</time>
      </trkpt>
      <trkpt lat="45.14381" lon="3.90813">
        <ele>601.63</ele>
        <time>2019-01-24T15:42:09.000Z</time>
      </trkpt>
      <trkpt lat="45.14375" lon="3.90799">
        <ele>599.58</ele>
        <time>2019-01-24T15:42:19.000Z</time>
      </trkpt>
      <trkpt lat="45.14365" lon="3.90792">
        <ele>604.47</ele>
        <time>2019-01-24T15:42:29.000Z</time>
      </trkpt>
      <trkpt lat="45.1436" lon="3.90789">
        <ele>608.05</ele>
        <time>2019-01-24T15:42:39.000Z</time>
      </trkpt>
      <trkpt lat="45.14353" lon="3.90782">
        <ele>603.64</ele>
        <time>2019-01-24T15:42:49.000Z</time>
      </trkpt>
      <trkpt lat="45.14352" lon="3.90785">
        <ele>608.9</ele>
        <time>2019-01-24T15:43:13.000Z</time>
      </trkpt>
      <trkpt lat="45.1435" lon="3.90797">
        <ele>623.43</ele>
        <time>2019-01-24T15:43:23.000Z</time>
      </trkpt>
      <trkpt lat="45.1435" lon="3.90797">
        <ele>621.4</ele>
        <time>2019-01-24T15:43:32.000Z</time>
      </trkpt>
    </trkseg>
  </trk>
</gpx>